BAW9SW KSAN-EGLL
Flight info
| Callsign | BAW9SW |
|---|---|
| Flight time | 10h 33m |
| Altitude | 33000 |
| Route | ZZOOO4 MTBAL DCT CADEZ/N0489F340 DCT HAKMN/N0492F330 Q73 LAKRR DCT BAWER Q96 SARAF DCT WEEMN DCT CKW/N0485F350 DCT DDY DCT TIMMR DCT HML DCT RIONA DCT PELEE DCT MEMSO DCT YWK DCT LOMSI/M084F370 NATU SOVED/N0482F390 DCT LUTOV DCT KELLY L10 WAL UY53 NUGRA |
| Aircraft | B77W/H-SDE1E2E3FGHIJ2J3J4J5M1RWXY/LB1D1 |
Departure
| Time | 2026-04-22 00:24 |
|---|---|
| Airport | San Diego International Airport (KSAN) |
Arrival
| Time | 2026-04-22 10:57 |
|---|---|
| Airport | London Heathrow Airport (EGLL) |
| Time | Latitude | Longitude | Altitude | Speed | Heading |
|---|---|---|---|---|---|
| 2026-04-21 23:24 | 32.73262 | -117.20714 | 22 ft | 0 kts | 192° |
| 2026-04-22 00:03 | 32.73272 | -117.20712 | 21 ft | 2 kts | 192° |
| 2026-04-22 00:03 | 32.73284 | -117.20709 | 21 ft | 0 kts | 192° |
| 2026-04-22 00:03 | 32.73296 | -117.20705 | 22 ft | 2 kts | 191° |
| 2026-04-22 00:04 | 32.73311 | -117.20702 | 22 ft | 2 kts | 189° |
| 2026-04-22 00:04 | 32.73326 | -117.20699 | 22 ft | 2 kts | 188° |
| 2026-04-22 00:04 | 32.73341 | -117.20696 | 22 ft | 2 kts | 187° |
| 2026-04-22 00:04 | 32.73356 | -117.20695 | 22 ft | 2 kts | 186° |
| 2026-04-22 00:05 | 32.73371 | -117.20692 | 22 ft | 2 kts | 185° |
| 2026-04-22 00:05 | 32.73386 | -117.20691 | 22 ft | 2 kts | 184° |
| 2026-04-22 00:05 | 32.73401 | -117.20690 | 23 ft | 2 kts | 183° |
| 2026-04-22 00:05 | 32.73413 | -117.20689 | 23 ft | 0 kts | 182° |
| 2026-04-22 00:06 | 32.73415 | -117.20689 | 23 ft | 0 kts | 182° |
| 2026-04-22 00:08 | 32.73414 | -117.20689 | 23 ft | 0 kts | 182° |
| 2026-04-22 00:08 | 32.73407 | -117.20689 | 23 ft | 2 kts | 182° |
| 2026-04-22 00:08 | 32.73384 | -117.20690 | 22 ft | 4 kts | 182° |
| 2026-04-22 00:08 | 32.73349 | -117.20681 | 22 ft | 5 kts | 142° |
| 2026-04-22 00:09 | 32.73332 | -117.20637 | 22 ft | 5 kts | 96° |
| 2026-04-22 00:09 | 32.73338 | -117.20596 | 23 ft | 4 kts | 65° |
| 2026-04-22 00:09 | 32.73353 | -117.20575 | 24 ft | 2 kts | 36° |
| 2026-04-22 00:09 | 32.73362 | -117.20569 | 24 ft | 0 kts | 19° |
| 2026-04-22 00:10 | 32.73366 | -117.20568 | 24 ft | 0 kts | 19° |
| 2026-04-22 00:10 | 32.73375 | -117.20565 | 24 ft | 1 kts | 12° |
| 2026-04-22 00:10 | 32.73387 | -117.20565 | 24 ft | 2 kts | 352° |
| 2026-04-22 00:10 | 32.73411 | -117.20570 | 25 ft | 4 kts | 349° |
| 2026-04-22 00:11 | 32.73447 | -117.20567 | 25 ft | 6 kts | 22° |
| 2026-04-22 00:11 | 32.73495 | -117.20538 | 25 ft | 8 kts | 44° |
| 2026-04-22 00:11 | 32.73538 | -117.20476 | 25 ft | 10 kts | 51° |
| 2026-04-22 00:11 | 32.73584 | -117.20400 | 25 ft | 12 kts | 72° |
| 2026-04-22 00:12 | 32.73574 | -117.20293 | 25 ft | 13 kts | 103° |
| 2026-04-22 00:12 | 32.73547 | -117.20176 | 25 ft | 15 kts | 106° |
| 2026-04-22 00:12 | 32.73523 | -117.20085 | 25 ft | 4 kts | 107° |
| 2026-04-22 00:12 | 32.73519 | -117.20065 | 25 ft | 0 kts | 106° |
| 2026-04-22 00:14 | 32.73517 | -117.20060 | 25 ft | 2 kts | 106° |
| 2026-04-22 00:14 | 32.73511 | -117.20031 | 25 ft | 5 kts | 104° |
| 2026-04-22 00:14 | 32.73499 | -117.19979 | 25 ft | 7 kts | 105° |
| 2026-04-22 00:14 | 32.73482 | -117.19905 | 25 ft | 10 kts | 106° |
| 2026-04-22 00:15 | 32.73460 | -117.19815 | 25 ft | 12 kts | 106° |
| 2026-04-22 00:15 | 32.73434 | -117.19714 | 26 ft | 13 kts | 107° |
| 2026-04-22 00:15 | 32.73406 | -117.19604 | 26 ft | 14 kts | 106° |
| 2026-04-22 00:15 | 32.73378 | -117.19485 | 28 ft | 15 kts | 106° |
| 2026-04-22 00:16 | 32.73347 | -117.19359 | 28 ft | 15 kts | 106° |
| 2026-04-22 00:16 | 32.73317 | -117.19234 | 28 ft | 15 kts | 106° |
| 2026-04-22 00:16 | 32.73288 | -117.19112 | 27 ft | 15 kts | 106° |
| 2026-04-22 00:16 | 32.73258 | -117.18989 | 26 ft | 15 kts | 106° |
| 2026-04-22 00:17 | 32.73228 | -117.18865 | 26 ft | 15 kts | 106° |
| 2026-04-22 00:17 | 32.73199 | -117.18742 | 25 ft | 15 kts | 106° |
| 2026-04-22 00:17 | 32.73170 | -117.18620 | 25 ft | 15 kts | 106° |
| 2026-04-22 00:17 | 32.73141 | -117.18501 | 25 ft | 15 kts | 106° |
| 2026-04-22 00:18 | 32.73113 | -117.18383 | 25 ft | 14 kts | 106° |
| 2026-04-22 00:18 | 32.73086 | -117.18270 | 25 ft | 14 kts | 106° |
| 2026-04-22 00:18 | 32.73058 | -117.18158 | 25 ft | 14 kts | 106° |
| 2026-04-22 00:18 | 32.73032 | -117.18047 | 25 ft | 13 kts | 106° |
| 2026-04-22 00:19 | 32.73004 | -117.17943 | 26 ft | 12 kts | 108° |
| 2026-04-22 00:19 | 32.72981 | -117.17849 | 27 ft | 11 kts | 106° |
| 2026-04-22 00:19 | 32.72961 | -117.17769 | 28 ft | 10 kts | 106° |
| 2026-04-22 00:19 | 32.72959 | -117.17760 | 29 ft | 0 kts | 106° |
| 2026-04-22 00:20 | 32.72958 | -117.17757 | 29 ft | 1 kts | 106° |
| 2026-04-22 00:20 | 32.72955 | -117.17742 | 29 ft | 2 kts | 106° |
| 2026-04-22 00:20 | 32.72950 | -117.17715 | 29 ft | 4 kts | 93° |
| 2026-04-22 00:20 | 32.72950 | -117.17710 | 29 ft | 0 kts | 89° |
| 2026-04-22 00:21 | 32.72950 | -117.17709 | 29 ft | 0 kts | 89° |
| 2026-04-22 00:21 | 32.72951 | -117.17704 | 29 ft | 1 kts | 86° |
| 2026-04-22 00:21 | 32.72952 | -117.17691 | 30 ft | 2 kts | 79° |
| 2026-04-22 00:22 | 32.72956 | -117.17670 | 30 ft | 3 kts | 78° |
| 2026-04-22 00:22 | 32.72963 | -117.17634 | 30 ft | 5 kts | 70° |
| 2026-04-22 00:22 | 32.72993 | -117.17604 | 31 ft | 6 kts | 9° |
| 2026-04-22 00:22 | 32.73027 | -117.17630 | 31 ft | 7 kts | 305° |
| 2026-04-22 00:23 | 32.73036 | -117.17653 | 31 ft | 7 kts | 288° |
| 2026-04-22 00:23 | 32.73130 | -117.18053 | 26 ft | 93 kts | 288° |
| 2026-04-22 00:23 | 32.73383 | -117.19106 | 28 ft | 170 kts | 286° |
| 2026-04-22 00:23 | 32.73773 | -117.20675 | 237 ft | 222 kts | 287° |
| 2026-04-22 00:24 | 32.74313 | -117.22485 | 1034 ft | 239 kts | 297° |
| 2026-04-22 00:24 | 32.75118 | -117.24159 | 1881 ft | 238 kts | 301° |
| 2026-04-22 00:24 | 32.75988 | -117.25888 | 2406 ft | 252 kts | 301° |
| 2026-04-22 00:24 | 32.76899 | -117.27691 | 3146 ft | 258 kts | 301° |
| 2026-04-22 00:25 | 32.77837 | -117.29551 | 3422 ft | 265 kts | 301° |
| 2026-04-22 00:25 | 32.78785 | -117.31426 | 3330 ft | 263 kts | 301° |
| 2026-04-22 00:25 | 32.79733 | -117.33304 | 3465 ft | 267 kts | 301° |
| 2026-04-22 00:25 | 32.80965 | -117.34959 | 4203 ft | 271 kts | 327° |
| 2026-04-22 00:26 | 32.82685 | -117.35757 | 5141 ft | 267 kts | 353° |
| 2026-04-22 00:26 | 32.84512 | -117.35582 | 5840 ft | 272 kts | 20° |
| 2026-04-22 00:26 | 32.86122 | -117.34394 | 6560 ft | 275 kts | 48° |
| 2026-04-22 00:26 | 32.87287 | -117.32592 | 7340 ft | 276 kts | 55° |
| 2026-04-22 00:27 | 32.88381 | -117.30713 | 8091 ft | 279 kts | 56° |
| 2026-04-22 00:27 | 32.89475 | -117.28822 | 8801 ft | 283 kts | 56° |
| 2026-04-22 00:27 | 32.90588 | -117.26897 | 9517 ft | 286 kts | 56° |
| 2026-04-22 00:27 | 32.91719 | -117.24938 | 10224 ft | 289 kts | 56° |
| 2026-04-22 00:28 | 32.92859 | -117.22966 | 10917 ft | 292 kts | 56° |
| 2026-04-22 00:28 | 32.94009 | -117.20972 | 11596 ft | 295 kts | 56° |
| 2026-04-22 00:28 | 32.95209 | -117.18893 | 11994 ft | 309 kts | 56° |
| 2026-04-22 00:28 | 32.96453 | -117.16735 | 12327 ft | 325 kts | 56° |
| 2026-04-22 00:29 | 32.97759 | -117.14470 | 12676 ft | 341 kts | 56° |
| 2026-04-22 00:29 | 32.99130 | -117.12090 | 13041 ft | 356 kts | 56° |
| 2026-04-22 00:29 | 33.00562 | -117.09601 | 13422 ft | 370 kts | 56° |
| 2026-04-22 00:29 | 33.02033 | -117.07043 | 13802 ft | 384 kts | 56° |
| 2026-04-22 00:30 | 33.03579 | -117.04353 | 14260 ft | 395 kts | 56° |
| 2026-04-22 00:30 | 33.05110 | -117.01688 | 14901 ft | 401 kts | 56° |
| 2026-04-22 00:30 | 33.06702 | -116.98914 | 15609 ft | 405 kts | 56° |
| 2026-04-22 00:30 | 33.08287 | -116.96149 | 16286 ft | 409 kts | 56° |
| 2026-04-22 00:31 | 33.09885 | -116.93361 | 16947 ft | 413 kts | 56° |
| 2026-04-22 00:31 | 33.11516 | -116.90514 | 17603 ft | 417 kts | 56° |
| 2026-04-22 00:31 | 33.13172 | -116.87620 | 18251 ft | 421 kts | 56° |
| 2026-04-22 00:31 | 33.14807 | -116.84759 | 18871 ft | 425 kts | 56° |
| 2026-04-22 00:32 | 33.16492 | -116.81809 | 19490 ft | 429 kts | 56° |
| 2026-04-22 00:32 | 33.18157 | -116.78893 | 20084 ft | 432 kts | 56° |
| 2026-04-22 00:32 | 33.19875 | -116.75880 | 20677 ft | 436 kts | 56° |
| 2026-04-22 00:32 | 33.21589 | -116.72873 | 21248 ft | 440 kts | 56° |
| 2026-04-22 00:33 | 33.23312 | -116.69846 | 21802 ft | 443 kts | 56° |
| 2026-04-22 00:33 | 33.25045 | -116.66801 | 22339 ft | 447 kts | 56° |
| 2026-04-22 00:33 | 33.26801 | -116.63714 | 22865 ft | 451 kts | 56° |
| 2026-04-22 00:33 | 33.28562 | -116.60612 | 23373 ft | 454 kts | 56° |
| 2026-04-22 00:34 | 33.30329 | -116.57500 | 23864 ft | 457 kts | 56° |
| 2026-04-22 00:34 | 33.32129 | -116.54325 | 24346 ft | 461 kts | 56° |
| 2026-04-22 00:34 | 33.33921 | -116.51163 | 24810 ft | 464 kts | 56° |
| 2026-04-22 00:34 | 33.35738 | -116.47981 | 25254 ft | 467 kts | 53° |
| 2026-04-22 00:35 | 33.37863 | -116.45020 | 25676 ft | 471 kts | 44° |
| 2026-04-22 00:35 | 33.40395 | -116.42468 | 26094 ft | 474 kts | 35° |
| 2026-04-22 00:35 | 33.43232 | -116.40433 | 26516 ft | 477 kts | 26° |
| 2026-04-22 00:35 | 33.46333 | -116.38944 | 26939 ft | 480 kts | 17° |
| 2026-04-22 00:36 | 33.49552 | -116.38060 | 27348 ft | 483 kts | 8° |
| 2026-04-22 00:36 | 33.52942 | -116.37776 | 27766 ft | 486 kts | 359° |
| 2026-04-22 00:36 | 33.56318 | -116.38111 | 28171 ft | 489 kts | 351° |
| 2026-04-22 00:36 | 33.59690 | -116.38734 | 28597 ft | 492 kts | 351° |
| 2026-04-22 00:37 | 33.63115 | -116.39393 | 29020 ft | 494 kts | 351° |
| 2026-04-22 00:37 | 33.66476 | -116.40042 | 29478 ft | 496 kts | 351° |
| 2026-04-22 00:37 | 33.69873 | -116.40695 | 30058 ft | 494 kts | 351° |
| 2026-04-22 00:37 | 33.73311 | -116.41033 | 30670 ft | 492 kts | 360° |
| 2026-04-22 00:38 | 33.76706 | -116.40762 | 31232 ft | 490 kts | 8° |
| 2026-04-22 00:38 | 33.80051 | -116.39892 | 31728 ft | 489 kts | 17° |
| 2026-04-22 00:38 | 33.83190 | -116.38471 | 32183 ft | 488 kts | 25° |
| 2026-04-22 00:38 | 33.86180 | -116.36474 | 32625 ft | 487 kts | 33° |
| 2026-04-22 00:39 | 33.88876 | -116.33993 | 32954 ft | 489 kts | 42° |
| 2026-04-22 00:39 | 33.93257 | -116.27758 | 32977 ft | 487 kts | 59° |
| 2026-04-22 00:40 | 33.95999 | -116.20363 | 32986 ft | 487 kts | 71° |
| 2026-04-22 00:40 | 33.98232 | -116.12687 | 32983 ft | 487 kts | 71° |
| 2026-04-22 00:41 | 34.00457 | -116.05002 | 32983 ft | 486 kts | 71° |
| 2026-04-22 00:41 | 34.02681 | -115.97303 | 32983 ft | 486 kts | 71° |
| 2026-04-22 00:42 | 34.04907 | -115.89575 | 32984 ft | 486 kts | 71° |
| 2026-04-22 00:42 | 34.07109 | -115.81908 | 32984 ft | 486 kts | 71° |
| 2026-04-22 00:43 | 34.09320 | -115.74193 | 32985 ft | 486 kts | 71° |
| 2026-04-22 00:43 | 34.11522 | -115.66482 | 32985 ft | 486 kts | 71° |
| 2026-04-22 00:44 | 34.13728 | -115.58741 | 32985 ft | 486 kts | 71° |
| 2026-04-22 00:44 | 34.15913 | -115.51051 | 32985 ft | 486 kts | 71° |
| 2026-04-22 00:45 | 34.18666 | -115.43639 | 32979 ft | 486 kts | 57° |
| 2026-04-22 00:45 | 34.23098 | -115.37507 | 32979 ft | 486 kts | 39° |
| 2026-04-22 00:46 | 34.28854 | -115.33259 | 32983 ft | 486 kts | 22° |
| 2026-04-22 00:46 | 34.35392 | -115.31209 | 32991 ft | 487 kts | 9° |
| 2026-04-22 00:47 | 34.42076 | -115.29931 | 32985 ft | 486 kts | 9° |
| 2026-04-22 00:47 | 34.48752 | -115.28632 | 32985 ft | 486 kts | 9° |
| 2026-04-22 00:48 | 34.55448 | -115.27310 | 32985 ft | 486 kts | 9° |
| 2026-04-22 00:48 | 34.62120 | -115.25981 | 32985 ft | 486 kts | 9° |
| 2026-04-22 00:49 | 34.68805 | -115.24642 | 32985 ft | 486 kts | 9° |
| 2026-04-22 00:49 | 34.75501 | -115.23296 | 32985 ft | 486 kts | 9° |
| 2026-04-22 00:50 | 34.82190 | -115.21948 | 32985 ft | 486 kts | 9° |
| 2026-04-22 00:50 | 34.88858 | -115.20600 | 32984 ft | 486 kts | 9° |
| 2026-04-22 00:51 | 34.95536 | -115.19248 | 32984 ft | 486 kts | 9° |
| 2026-04-22 00:51 | 35.02218 | -115.17893 | 32984 ft | 486 kts | 9° |
| 2026-04-22 00:52 | 35.08881 | -115.16540 | 32983 ft | 486 kts | 9° |
| 2026-04-22 00:52 | 35.15559 | -115.15180 | 32983 ft | 486 kts | 9° |
| 2026-04-22 00:53 | 35.22237 | -115.13819 | 32983 ft | 486 kts | 9° |
| 2026-04-22 00:53 | 35.28920 | -115.12454 | 32983 ft | 486 kts | 9° |
| 2026-04-22 00:54 | 35.35607 | -115.11087 | 32983 ft | 486 kts | 9° |
| 2026-04-22 00:54 | 35.42283 | -115.09719 | 32983 ft | 486 kts | 9° |
| 2026-04-22 00:55 | 35.48791 | -115.07379 | 32980 ft | 487 kts | 25° |
| 2026-04-22 00:55 | 35.56731 | -114.99834 | 32988 ft | 487 kts | 47° |
| 2026-04-22 00:56 | 35.61248 | -114.93690 | 32984 ft | 486 kts | 48° |
| 2026-04-22 00:56 | 35.65789 | -114.87479 | 32985 ft | 486 kts | 48° |
| 2026-04-22 00:57 | 35.70312 | -114.81293 | 32985 ft | 486 kts | 48° |
| 2026-04-22 00:57 | 35.74826 | -114.75115 | 32985 ft | 486 kts | 48° |
| 2026-04-22 00:58 | 35.79327 | -114.68943 | 32985 ft | 486 kts | 48° |
| 2026-04-22 00:58 | 35.83843 | -114.62740 | 32985 ft | 486 kts | 48° |
| 2026-04-22 00:59 | 35.88352 | -114.56532 | 32985 ft | 486 kts | 48° |
| 2026-04-22 00:59 | 35.92837 | -114.50346 | 32985 ft | 486 kts | 48° |
| 2026-04-22 01:00 | 35.97340 | -114.44125 | 32985 ft | 486 kts | 48° |
| 2026-04-22 01:00 | 36.01862 | -114.37865 | 32985 ft | 486 kts | 48° |
| 2026-04-22 01:01 | 36.06350 | -114.31641 | 32985 ft | 486 kts | 49° |
| 2026-04-22 01:01 | 36.10890 | -114.25507 | 32988 ft | 486 kts | 45° |
| 2026-04-22 01:02 | 36.15649 | -114.19577 | 32984 ft | 486 kts | 45° |
| 2026-04-22 01:02 | 36.20390 | -114.13642 | 32984 ft | 486 kts | 45° |
| 2026-04-22 01:03 | 36.25128 | -114.07681 | 32985 ft | 486 kts | 45° |
| 2026-04-22 01:03 | 36.29860 | -114.01708 | 32985 ft | 486 kts | 45° |
| 2026-04-22 01:04 | 36.34574 | -113.95743 | 32984 ft | 486 kts | 45° |
| 2026-04-22 01:04 | 36.39311 | -113.89734 | 32984 ft | 486 kts | 45° |
| 2026-04-22 01:05 | 36.44040 | -113.83723 | 32983 ft | 486 kts | 46° |
| 2026-04-22 01:05 | 36.48756 | -113.77715 | 32983 ft | 486 kts | 46° |
| 2026-04-22 01:06 | 36.53451 | -113.71722 | 32982 ft | 486 kts | 46° |
| 2026-04-22 01:06 | 36.58183 | -113.65672 | 32982 ft | 486 kts | 46° |
| 2026-04-22 01:07 | 36.62890 | -113.59642 | 32982 ft | 486 kts | 46° |
| 2026-04-22 01:07 | 36.67582 | -113.53619 | 32982 ft | 486 kts | 46° |
| 2026-04-22 01:08 | 36.72271 | -113.47591 | 32982 ft | 486 kts | 46° |
| 2026-04-22 01:08 | 36.76967 | -113.41540 | 32982 ft | 486 kts | 46° |
| 2026-04-22 01:09 | 36.81658 | -113.35486 | 32982 ft | 486 kts | 46° |
| 2026-04-22 01:09 | 36.86344 | -113.29426 | 32982 ft | 486 kts | 46° |
| 2026-04-22 01:10 | 36.91025 | -113.23360 | 32982 ft | 486 kts | 46° |
| 2026-04-22 01:10 | 36.95696 | -113.17297 | 32982 ft | 486 kts | 46° |
| 2026-04-22 01:11 | 37.00384 | -113.11201 | 32982 ft | 486 kts | 46° |
| 2026-04-22 01:11 | 37.05056 | -113.05113 | 32982 ft | 486 kts | 46° |
| 2026-04-22 01:12 | 37.09738 | -112.99001 | 32982 ft | 486 kts | 46° |
| 2026-04-22 01:12 | 37.14404 | -112.92897 | 32981 ft | 486 kts | 46° |
| 2026-04-22 01:13 | 37.19065 | -112.86790 | 32981 ft | 486 kts | 46° |
| 2026-04-22 01:13 | 37.23730 | -112.80666 | 32981 ft | 486 kts | 46° |
| 2026-04-22 01:14 | 37.28399 | -112.74523 | 32981 ft | 486 kts | 46° |
| 2026-04-22 01:14 | 37.33047 | -112.68396 | 32981 ft | 486 kts | 46° |
| 2026-04-22 01:15 | 37.37688 | -112.62267 | 32980 ft | 486 kts | 46° |
| 2026-04-22 01:15 | 37.42335 | -112.56119 | 32980 ft | 486 kts | 46° |
| 2026-04-22 01:16 | 37.46988 | -112.49951 | 32980 ft | 486 kts | 46° |
| 2026-04-22 01:16 | 37.51642 | -112.43771 | 32980 ft | 486 kts | 46° |
| 2026-04-22 01:17 | 37.56274 | -112.37607 | 32980 ft | 486 kts | 46° |
| 2026-04-22 01:17 | 37.60921 | -112.31409 | 32980 ft | 486 kts | 47° |
| 2026-04-22 01:18 | 37.65516 | -112.25169 | 32981 ft | 486 kts | 49° |
| 2026-04-22 01:18 | 37.69937 | -112.18744 | 32980 ft | 486 kts | 49° |
| 2026-04-22 01:19 | 37.74371 | -112.12297 | 32980 ft | 486 kts | 49° |
| 2026-04-22 01:19 | 37.78796 | -112.05866 | 32980 ft | 486 kts | 49° |
| 2026-04-22 01:20 | 37.83228 | -111.99418 | 32979 ft | 486 kts | 49° |
| 2026-04-22 01:20 | 37.87709 | -111.93069 | 32980 ft | 486 kts | 48° |
| 2026-04-22 01:21 | 37.92218 | -111.86694 | 32980 ft | 486 kts | 48° |
| 2026-04-22 01:21 | 37.96730 | -111.80298 | 32979 ft | 486 kts | 48° |
| 2026-04-22 01:22 | 38.01230 | -111.73905 | 32979 ft | 486 kts | 48° |
| 2026-04-22 01:22 | 38.05703 | -111.67534 | 32979 ft | 486 kts | 48° |
| 2026-04-22 01:23 | 38.10176 | -111.61152 | 32979 ft | 486 kts | 48° |
| 2026-04-22 01:23 | 38.14659 | -111.54741 | 32980 ft | 486 kts | 48° |
| 2026-04-22 01:24 | 38.19130 | -111.48333 | 32980 ft | 486 kts | 48° |
| 2026-04-22 01:24 | 38.23614 | -111.41895 | 32980 ft | 486 kts | 48° |
| 2026-04-22 01:25 | 38.28074 | -111.35478 | 32980 ft | 486 kts | 48° |
| 2026-04-22 01:25 | 38.32539 | -111.29041 | 32981 ft | 486 kts | 49° |
| 2026-04-22 01:26 | 38.36994 | -111.22604 | 32981 ft | 486 kts | 49° |
| 2026-04-22 01:26 | 38.41451 | -111.16154 | 32982 ft | 486 kts | 49° |
| 2026-04-22 01:27 | 38.45903 | -111.09695 | 32982 ft | 486 kts | 49° |
| 2026-04-22 01:27 | 38.50347 | -111.03236 | 32982 ft | 486 kts | 49° |
| 2026-04-22 01:28 | 38.54795 | -110.96758 | 32982 ft | 486 kts | 49° |
| 2026-04-22 01:28 | 38.59240 | -110.90273 | 32981 ft | 486 kts | 49° |
| 2026-04-22 01:29 | 38.64090 | -110.84225 | 32981 ft | 486 kts | 43° |
| 2026-04-22 01:29 | 38.69040 | -110.78349 | 32981 ft | 486 kts | 43° |
| 2026-04-22 01:30 | 38.73975 | -110.72472 | 32981 ft | 486 kts | 43° |
| 2026-04-22 01:30 | 38.78913 | -110.66574 | 32981 ft | 486 kts | 43° |
| 2026-04-22 01:31 | 38.83850 | -110.60664 | 32982 ft | 486 kts | 43° |
| 2026-04-22 01:31 | 38.88746 | -110.54788 | 32982 ft | 486 kts | 43° |
| 2026-04-22 01:32 | 38.93687 | -110.48846 | 32982 ft | 486 kts | 43° |
| 2026-04-22 01:32 | 38.98616 | -110.42907 | 32982 ft | 486 kts | 43° |
| 2026-04-22 01:33 | 39.03516 | -110.36989 | 32982 ft | 486 kts | 43° |
| 2026-04-22 01:33 | 39.08434 | -110.31039 | 32982 ft | 486 kts | 43° |
| 2026-04-22 01:34 | 39.13338 | -110.25093 | 32982 ft | 486 kts | 43° |
| 2026-04-22 01:34 | 39.18243 | -110.19134 | 32982 ft | 486 kts | 43° |
| 2026-04-22 01:35 | 39.23167 | -110.13139 | 32982 ft | 486 kts | 43° |
| 2026-04-22 01:35 | 39.28051 | -110.07181 | 32982 ft | 486 kts | 43° |
| 2026-04-22 01:36 | 39.32948 | -110.01196 | 32982 ft | 486 kts | 43° |
| 2026-04-22 01:36 | 39.38000 | -109.95367 | 32983 ft | 486 kts | 37° |
| 2026-04-22 01:37 | 39.43426 | -109.90178 | 32981 ft | 486 kts | 36° |
| 2026-04-22 01:37 | 39.48858 | -109.84994 | 32981 ft | 486 kts | 36° |
| 2026-04-22 01:38 | 39.54295 | -109.79787 | 32981 ft | 486 kts | 36° |
| 2026-04-22 01:38 | 39.59738 | -109.74562 | 32981 ft | 486 kts | 36° |
| 2026-04-22 01:39 | 39.65158 | -109.69345 | 32981 ft | 486 kts | 36° |
| 2026-04-22 01:39 | 39.70565 | -109.64130 | 32981 ft | 486 kts | 36° |
| 2026-04-22 01:40 | 39.75991 | -109.58885 | 32981 ft | 486 kts | 36° |
| 2026-04-22 01:40 | 39.81375 | -109.53671 | 32982 ft | 486 kts | 36° |
| 2026-04-22 01:41 | 39.86785 | -109.48420 | 32982 ft | 486 kts | 36° |
| 2026-04-22 01:41 | 39.92192 | -109.43162 | 32982 ft | 486 kts | 36° |
| 2026-04-22 01:42 | 39.97614 | -109.37878 | 32982 ft | 486 kts | 36° |
| 2026-04-22 01:42 | 40.03003 | -109.32616 | 32982 ft | 486 kts | 37° |
| 2026-04-22 01:43 | 40.08400 | -109.27335 | 32982 ft | 486 kts | 37° |
| 2026-04-22 01:43 | 40.13825 | -109.22016 | 32982 ft | 486 kts | 37° |
| 2026-04-22 01:44 | 40.16533 | -109.19356 | 32603 ft | 492 kts | 37° |
| 2026-04-22 01:44 | 40.19217 | -109.16718 | 32841 ft | 482 kts | 37° |
| 2026-04-22 01:44 | 40.21884 | -109.14094 | 32975 ft | 486 kts | 37° |
| 2026-04-22 01:44 | 40.24625 | -109.11395 | 32981 ft | 488 kts | 37° |
| 2026-04-22 01:45 | 40.29995 | -109.06097 | 32981 ft | 486 kts | 37° |
| 2026-04-22 01:45 | 40.35379 | -109.00775 | 32981 ft | 486 kts | 37° |
| 2026-04-22 01:46 | 40.40759 | -108.95446 | 32981 ft | 486 kts | 37° |
| 2026-04-22 01:46 | 40.46146 | -108.90099 | 32981 ft | 486 kts | 37° |
| 2026-04-22 01:47 | 40.51541 | -108.84733 | 32981 ft | 486 kts | 37° |
| 2026-04-22 01:47 | 40.56903 | -108.79388 | 32981 ft | 486 kts | 37° |
| 2026-04-22 01:48 | 40.62276 | -108.74023 | 32981 ft | 486 kts | 37° |
| 2026-04-22 01:48 | 40.67662 | -108.68632 | 32981 ft | 486 kts | 37° |
| 2026-04-22 01:49 | 40.73035 | -108.63244 | 32981 ft | 486 kts | 37° |
| 2026-04-22 01:49 | 40.78413 | -108.57838 | 32981 ft | 486 kts | 37° |
| 2026-04-22 01:50 | 40.83749 | -108.52466 | 32981 ft | 486 kts | 37° |
| 2026-04-22 01:50 | 40.89121 | -108.47044 | 32981 ft | 486 kts | 37° |
| 2026-04-22 01:51 | 40.94463 | -108.41641 | 32981 ft | 486 kts | 37° |
| 2026-04-22 01:51 | 40.99845 | -108.36188 | 32981 ft | 486 kts | 37° |
| 2026-04-22 01:52 | 41.05186 | -108.30763 | 32981 ft | 486 kts | 38° |
| 2026-04-22 01:52 | 41.10547 | -108.25307 | 32981 ft | 486 kts | 38° |
| 2026-04-22 01:53 | 41.15902 | -108.19846 | 32981 ft | 486 kts | 38° |
| 2026-04-22 01:53 | 41.21230 | -108.14401 | 32981 ft | 486 kts | 38° |
| 2026-04-22 01:54 | 41.26576 | -108.08926 | 32981 ft | 486 kts | 38° |
| 2026-04-22 01:54 | 41.31913 | -108.03449 | 32981 ft | 486 kts | 38° |
| 2026-04-22 01:55 | 41.37249 | -107.97960 | 32981 ft | 486 kts | 38° |
| 2026-04-22 01:55 | 41.42613 | -107.92431 | 32981 ft | 486 kts | 38° |
| 2026-04-22 01:56 | 41.47933 | -107.86935 | 32981 ft | 486 kts | 38° |
| 2026-04-22 01:56 | 41.53250 | -107.81432 | 32981 ft | 486 kts | 38° |
| 2026-04-22 01:57 | 41.58579 | -107.75904 | 32981 ft | 486 kts | 38° |
| 2026-04-22 01:57 | 41.63903 | -107.70370 | 32981 ft | 486 kts | 38° |
| 2026-04-22 01:58 | 41.69238 | -107.64812 | 32981 ft | 486 kts | 38° |
| 2026-04-22 01:58 | 41.74550 | -107.59265 | 32981 ft | 486 kts | 38° |
| 2026-04-22 01:59 | 41.79982 | -107.53895 | 32981 ft | 486 kts | 35° |
| 2026-04-22 01:59 | 41.85515 | -107.48660 | 32981 ft | 486 kts | 35° |
| 2026-04-22 02:00 | 41.90992 | -107.43448 | 32981 ft | 486 kts | 35° |
| 2026-04-22 02:00 | 41.96501 | -107.38181 | 32981 ft | 486 kts | 35° |
| 2026-04-22 02:01 | 42.02018 | -107.32890 | 32981 ft | 486 kts | 36° |
| 2026-04-22 02:01 | 42.07511 | -107.27607 | 32981 ft | 486 kts | 36° |
| 2026-04-22 02:02 | 42.13001 | -107.22313 | 32980 ft | 486 kts | 36° |
| 2026-04-22 02:02 | 42.18470 | -107.17026 | 32980 ft | 486 kts | 36° |
| 2026-04-22 02:03 | 42.23945 | -107.11722 | 32980 ft | 486 kts | 36° |
| 2026-04-22 02:03 | 42.29429 | -107.06397 | 32981 ft | 486 kts | 36° |
| 2026-04-22 02:04 | 42.37620 | -106.98422 | 32981 ft | 486 kts | 36° |
| 2026-04-22 02:05 | 42.43089 | -106.93083 | 32981 ft | 486 kts | 36° |
| 2026-04-22 02:05 | 42.48578 | -106.87711 | 32981 ft | 486 kts | 36° |
| 2026-04-22 02:06 | 42.54044 | -106.82350 | 32982 ft | 486 kts | 36° |
| 2026-04-22 02:06 | 42.59500 | -106.76988 | 32982 ft | 486 kts | 36° |
| 2026-04-22 02:07 | 42.64935 | -106.71635 | 32982 ft | 486 kts | 36° |
| 2026-04-22 02:07 | 42.70394 | -106.66246 | 32982 ft | 486 kts | 36° |
| 2026-04-22 02:08 | 42.75848 | -106.60849 | 32982 ft | 486 kts | 36° |
| 2026-04-22 02:08 | 42.81290 | -106.55453 | 32982 ft | 486 kts | 36° |
| 2026-04-22 02:09 | 42.86749 | -106.50028 | 32982 ft | 486 kts | 36° |
| 2026-04-22 02:09 | 42.92215 | -106.44583 | 32982 ft | 486 kts | 36° |
| 2026-04-22 02:10 | 42.97636 | -106.39172 | 32982 ft | 486 kts | 36° |
| 2026-04-22 02:10 | 43.03107 | -106.33698 | 32982 ft | 486 kts | 36° |
| 2026-04-22 02:11 | 43.08484 | -106.28191 | 32975 ft | 486 kts | 41° |
| 2026-04-22 02:11 | 43.13189 | -106.21573 | 32982 ft | 486 kts | 47° |
| 2026-04-22 02:12 | 43.17750 | -106.14780 | 32982 ft | 486 kts | 47° |
| 2026-04-22 02:12 | 43.22313 | -106.07962 | 32982 ft | 486 kts | 47° |
| 2026-04-22 02:13 | 43.26857 | -106.01154 | 32982 ft | 486 kts | 47° |
| 2026-04-22 02:13 | 43.31387 | -105.94350 | 32982 ft | 486 kts | 47° |
| 2026-04-22 02:14 | 43.35926 | -105.87515 | 32982 ft | 486 kts | 47° |
| 2026-04-22 02:14 | 43.40465 | -105.80662 | 32982 ft | 486 kts | 47° |
| 2026-04-22 02:15 | 43.45018 | -105.73773 | 32982 ft | 486 kts | 47° |
| 2026-04-22 02:15 | 43.49541 | -105.66913 | 32982 ft | 486 kts | 47° |
| 2026-04-22 02:16 | 43.54057 | -105.60046 | 32982 ft | 486 kts | 47° |
| 2026-04-22 02:16 | 43.58589 | -105.53138 | 32982 ft | 486 kts | 47° |
| 2026-04-22 02:17 | 43.63087 | -105.46266 | 32982 ft | 486 kts | 47° |
| 2026-04-22 02:17 | 43.67626 | -105.39314 | 32982 ft | 486 kts | 47° |
| 2026-04-22 02:18 | 43.72134 | -105.32392 | 32982 ft | 486 kts | 48° |
| 2026-04-22 02:18 | 43.76619 | -105.25488 | 32982 ft | 486 kts | 48° |
| 2026-04-22 02:19 | 43.81126 | -105.18535 | 32982 ft | 486 kts | 48° |
| 2026-04-22 02:19 | 43.85619 | -105.11588 | 32983 ft | 486 kts | 48° |
| 2026-04-22 02:20 | 43.90111 | -105.04622 | 32983 ft | 486 kts | 48° |
| 2026-04-22 02:20 | 43.94619 | -104.97616 | 32983 ft | 486 kts | 48° |
| 2026-04-22 02:21 | 43.99106 | -104.90626 | 32982 ft | 486 kts | 48° |
| 2026-04-22 02:21 | 44.03582 | -104.83634 | 32982 ft | 486 kts | 48° |
| 2026-04-22 02:22 | 44.08077 | -104.76595 | 32982 ft | 486 kts | 48° |
| 2026-04-22 02:22 | 44.12542 | -104.69586 | 32983 ft | 486 kts | 48° |
| 2026-04-22 02:23 | 44.17001 | -104.62570 | 32983 ft | 486 kts | 48° |
| 2026-04-22 02:23 | 44.21472 | -104.55518 | 32983 ft | 486 kts | 48° |
| 2026-04-22 02:24 | 44.25932 | -104.48464 | 32982 ft | 486 kts | 48° |
| 2026-04-22 02:24 | 44.30375 | -104.41421 | 32982 ft | 486 kts | 48° |
| 2026-04-22 02:25 | 44.34829 | -104.34342 | 32982 ft | 486 kts | 49° |
| 2026-04-22 02:25 | 44.39273 | -104.27262 | 32982 ft | 486 kts | 49° |
| 2026-04-22 02:26 | 44.43713 | -104.20171 | 32983 ft | 486 kts | 49° |
| 2026-04-22 02:26 | 44.48154 | -104.13059 | 32983 ft | 486 kts | 49° |
| 2026-04-22 02:27 | 44.52576 | -104.05961 | 32983 ft | 486 kts | 49° |
| 2026-04-22 02:27 | 44.57011 | -103.98824 | 32984 ft | 486 kts | 49° |
| 2026-04-22 02:28 | 44.61437 | -103.91683 | 32984 ft | 486 kts | 49° |
| 2026-04-22 02:28 | 44.65848 | -103.84548 | 32984 ft | 486 kts | 49° |
| 2026-04-22 02:29 | 44.70251 | -103.77408 | 32984 ft | 486 kts | 49° |
| 2026-04-22 02:29 | 44.74666 | -103.70231 | 32984 ft | 486 kts | 49° |
| 2026-04-22 02:30 | 44.79061 | -103.63068 | 32984 ft | 486 kts | 49° |
| 2026-04-22 02:30 | 44.83461 | -103.55878 | 32984 ft | 486 kts | 49° |
| 2026-04-22 02:31 | 44.87867 | -103.48660 | 32984 ft | 486 kts | 49° |
| 2026-04-22 02:31 | 44.92269 | -103.41430 | 32984 ft | 486 kts | 49° |
| 2026-04-22 02:32 | 44.96632 | -103.34245 | 32984 ft | 486 kts | 50° |
| 2026-04-22 02:32 | 45.01017 | -103.27007 | 32984 ft | 486 kts | 50° |
| 2026-04-22 02:33 | 45.05415 | -103.19729 | 32984 ft | 486 kts | 50° |
| 2026-04-22 02:33 | 45.09768 | -103.12505 | 32984 ft | 486 kts | 50° |
| 2026-04-22 02:34 | 45.14156 | -103.05205 | 32984 ft | 486 kts | 50° |
| 2026-04-22 02:34 | 45.18522 | -102.97922 | 32984 ft | 486 kts | 50° |
| 2026-04-22 02:35 | 45.22877 | -102.90639 | 32984 ft | 486 kts | 50° |
| 2026-04-22 02:35 | 45.27218 | -102.83360 | 32984 ft | 486 kts | 50° |
| 2026-04-22 02:36 | 45.31551 | -102.76077 | 32984 ft | 486 kts | 50° |
| 2026-04-22 02:36 | 45.35901 | -102.68746 | 32984 ft | 486 kts | 50° |
| 2026-04-22 02:37 | 45.40236 | -102.61420 | 32984 ft | 486 kts | 50° |
| 2026-04-22 02:37 | 45.44571 | -102.54076 | 32984 ft | 486 kts | 50° |
| 2026-04-22 02:38 | 45.48921 | -102.46686 | 32985 ft | 486 kts | 50° |
| 2026-04-22 02:38 | 45.53242 | -102.39327 | 32985 ft | 486 kts | 50° |
| 2026-04-22 02:39 | 45.57539 | -102.31990 | 32985 ft | 486 kts | 50° |
| 2026-04-22 02:39 | 45.61875 | -102.24566 | 32985 ft | 486 kts | 50° |
| 2026-04-22 02:40 | 45.66175 | -102.17184 | 32985 ft | 486 kts | 50° |
| 2026-04-22 02:40 | 45.70481 | -102.09772 | 32985 ft | 486 kts | 50° |
| 2026-04-22 02:41 | 45.74783 | -102.02347 | 32985 ft | 486 kts | 50° |
| 2026-04-22 02:41 | 45.79087 | -101.94900 | 32985 ft | 486 kts | 50° |
| 2026-04-22 02:42 | 45.83373 | -101.87463 | 32985 ft | 486 kts | 50° |
| 2026-04-22 02:42 | 45.87661 | -101.80003 | 32985 ft | 486 kts | 50° |
| 2026-04-22 02:43 | 45.91930 | -101.72558 | 32985 ft | 486 kts | 50° |
| 2026-04-22 02:43 | 45.96225 | -101.65045 | 32985 ft | 486 kts | 50° |
| 2026-04-22 02:44 | 46.00493 | -101.57561 | 32985 ft | 486 kts | 50° |
| 2026-04-22 02:44 | 46.04744 | -101.50085 | 32985 ft | 486 kts | 50° |
| 2026-04-22 02:45 | 46.09007 | -101.42568 | 32985 ft | 486 kts | 50° |
| 2026-04-22 02:45 | 46.13274 | -101.35026 | 32985 ft | 486 kts | 50° |
| 2026-04-22 02:46 | 46.17514 | -101.27507 | 32985 ft | 486 kts | 51° |
| 2026-04-22 02:46 | 46.21771 | -101.19941 | 32985 ft | 486 kts | 51° |
| 2026-04-22 02:47 | 46.26020 | -101.12368 | 32985 ft | 486 kts | 51° |
| 2026-04-22 02:47 | 46.30235 | -101.04833 | 32985 ft | 486 kts | 51° |
| 2026-04-22 02:48 | 46.34470 | -100.97244 | 32985 ft | 486 kts | 51° |
| 2026-04-22 02:48 | 46.38715 | -100.89624 | 32981 ft | 486 kts | 50° |
| 2026-04-22 02:49 | 46.43466 | -100.82742 | 32985 ft | 486 kts | 43° |
| 2026-04-22 02:49 | 46.48340 | -100.75979 | 32985 ft | 486 kts | 44° |
| 2026-04-22 02:50 | 46.53160 | -100.69194 | 32985 ft | 486 kts | 44° |
| 2026-04-22 02:50 | 46.57986 | -100.62340 | 32985 ft | 486 kts | 44° |
| 2026-04-22 02:51 | 46.62779 | -100.55491 | 32985 ft | 486 kts | 44° |
| 2026-04-22 02:51 | 46.67584 | -100.48592 | 32985 ft | 486 kts | 44° |
| 2026-04-22 02:52 | 46.72384 | -100.41678 | 32985 ft | 486 kts | 44° |
| 2026-04-22 02:52 | 46.77152 | -100.34785 | 32985 ft | 486 kts | 45° |
| 2026-04-22 02:53 | 46.81934 | -100.27854 | 32985 ft | 486 kts | 45° |
| 2026-04-22 02:53 | 46.86720 | -100.20895 | 32985 ft | 486 kts | 45° |
| 2026-04-22 02:54 | 46.91476 | -100.13963 | 32985 ft | 486 kts | 45° |
| 2026-04-22 02:54 | 46.96253 | -100.06980 | 32985 ft | 486 kts | 45° |
| 2026-04-22 02:55 | 47.01032 | -99.99976 | 32985 ft | 486 kts | 45° |
| 2026-04-22 02:55 | 47.05783 | -99.92994 | 32985 ft | 486 kts | 45° |
| 2026-04-22 02:56 | 47.10518 | -99.86017 | 32985 ft | 486 kts | 45° |
| 2026-04-22 02:56 | 47.15284 | -99.78976 | 32985 ft | 486 kts | 45° |
| 2026-04-22 02:57 | 47.20036 | -99.71935 | 32985 ft | 486 kts | 45° |
| 2026-04-22 02:57 | 47.24748 | -99.64935 | 32985 ft | 486 kts | 45° |
| 2026-04-22 02:58 | 47.29507 | -99.57845 | 32985 ft | 486 kts | 45° |
| 2026-04-22 02:58 | 47.34240 | -99.50776 | 32985 ft | 486 kts | 45° |
| 2026-04-22 02:59 | 47.38963 | -99.43703 | 32985 ft | 486 kts | 45° |
| 2026-04-22 02:59 | 47.43679 | -99.36622 | 32985 ft | 486 kts | 45° |
| 2026-04-22 03:00 | 47.48408 | -99.29501 | 32985 ft | 486 kts | 46° |
| 2026-04-22 03:00 | 47.53111 | -99.22399 | 32985 ft | 486 kts | 46° |
| 2026-04-22 03:01 | 47.57812 | -99.15281 | 32985 ft | 486 kts | 46° |
| 2026-04-22 03:01 | 47.62524 | -99.08128 | 32985 ft | 486 kts | 46° |
| 2026-04-22 03:02 | 47.67214 | -99.00988 | 32985 ft | 486 kts | 46° |
| 2026-04-22 03:02 | 47.71923 | -98.93800 | 32985 ft | 486 kts | 46° |
| 2026-04-22 03:03 | 47.76608 | -98.86629 | 32985 ft | 486 kts | 46° |
| 2026-04-22 03:03 | 47.81308 | -98.79414 | 32985 ft | 486 kts | 46° |
| 2026-04-22 03:04 | 47.85995 | -98.72199 | 32985 ft | 485 kts | 46° |
| 2026-04-22 03:04 | 47.90657 | -98.65005 | 32985 ft | 485 kts | 46° |
| 2026-04-22 03:05 | 47.95315 | -98.57794 | 32985 ft | 485 kts | 46° |
| 2026-04-22 03:05 | 47.99997 | -98.50527 | 32985 ft | 485 kts | 46° |
| 2026-04-22 03:06 | 48.04649 | -98.43286 | 32986 ft | 485 kts | 46° |
| 2026-04-22 03:06 | 48.09301 | -98.36026 | 32986 ft | 485 kts | 46° |
| 2026-04-22 03:07 | 48.13951 | -98.28748 | 32986 ft | 485 kts | 46° |
| 2026-04-22 03:07 | 48.18591 | -98.21465 | 32986 ft | 485 kts | 46° |
| 2026-04-22 03:08 | 48.23246 | -98.14139 | 32986 ft | 485 kts | 46° |
| 2026-04-22 03:08 | 48.27886 | -98.06815 | 32986 ft | 485 kts | 46° |
| 2026-04-22 03:09 | 48.32506 | -97.99502 | 32986 ft | 485 kts | 46° |
| 2026-04-22 03:09 | 48.37132 | -97.92158 | 32986 ft | 485 kts | 46° |
| 2026-04-22 03:10 | 48.41753 | -97.84804 | 32986 ft | 485 kts | 46° |
| 2026-04-22 03:10 | 48.46368 | -97.77435 | 32986 ft | 485 kts | 46° |
| 2026-04-22 03:11 | 48.50972 | -97.70066 | 32986 ft | 485 kts | 46° |
| 2026-04-22 03:11 | 48.55578 | -97.62672 | 32986 ft | 485 kts | 46° |
| 2026-04-22 03:12 | 48.60185 | -97.55254 | 32986 ft | 485 kts | 46° |
| 2026-04-22 03:12 | 48.67084 | -97.44107 | 32986 ft | 485 kts | 46° |
| 2026-04-22 03:13 | 48.71690 | -97.36639 | 32986 ft | 485 kts | 46° |
| 2026-04-22 03:13 | 48.76276 | -97.29180 | 32986 ft | 485 kts | 47° |
| 2026-04-22 03:14 | 48.80843 | -97.21732 | 32986 ft | 485 kts | 47° |
| 2026-04-22 03:14 | 48.85394 | -97.14249 | 32980 ft | 485 kts | 50° |
| 2026-04-22 03:15 | 48.89143 | -97.05728 | 32987 ft | 486 kts | 59° |
| 2026-04-22 03:15 | 48.92535 | -96.96947 | 32986 ft | 485 kts | 59° |
| 2026-04-22 03:16 | 48.95926 | -96.88080 | 32986 ft | 485 kts | 60° |
| 2026-04-22 03:16 | 48.99280 | -96.79253 | 32986 ft | 485 kts | 60° |
| 2026-04-22 03:17 | 49.02645 | -96.70353 | 32986 ft | 485 kts | 60° |
| 2026-04-22 03:17 | 49.05996 | -96.61449 | 32986 ft | 485 kts | 60° |
| 2026-04-22 03:18 | 49.09340 | -96.52534 | 32986 ft | 485 kts | 60° |
| 2026-04-22 03:18 | 49.12681 | -96.43591 | 32986 ft | 485 kts | 60° |
| 2026-04-22 03:19 | 49.15952 | -96.34803 | 32987 ft | 481 kts | 60° |
| 2026-04-22 03:19 | 49.19286 | -96.25819 | 32986 ft | 487 kts | 60° |
| 2026-04-22 03:20 | 49.22583 | -96.16901 | 32986 ft | 485 kts | 60° |
| 2026-04-22 03:20 | 49.25881 | -96.07949 | 32986 ft | 485 kts | 60° |
| 2026-04-22 03:21 | 49.29184 | -95.98953 | 32986 ft | 485 kts | 60° |
| 2026-04-22 03:21 | 49.32481 | -95.89945 | 32986 ft | 485 kts | 60° |
| 2026-04-22 03:22 | 49.35782 | -95.80892 | 32986 ft | 485 kts | 60° |
| 2026-04-22 03:22 | 49.39050 | -95.71899 | 32986 ft | 485 kts | 60° |
| 2026-04-22 03:23 | 49.42330 | -95.62841 | 32986 ft | 485 kts | 60° |
| 2026-04-22 03:23 | 49.45584 | -95.53824 | 32986 ft | 485 kts | 60° |
| 2026-04-22 03:24 | 49.48849 | -95.44746 | 32986 ft | 485 kts | 60° |
| 2026-04-22 03:24 | 49.52093 | -95.35692 | 32986 ft | 485 kts | 60° |
| 2026-04-22 03:25 | 49.55369 | -95.26517 | 32986 ft | 485 kts | 61° |
| 2026-04-22 03:25 | 49.58624 | -95.17371 | 32986 ft | 485 kts | 61° |
| 2026-04-22 03:26 | 49.61858 | -95.08249 | 32986 ft | 485 kts | 61° |
| 2026-04-22 03:26 | 49.65070 | -94.99159 | 32986 ft | 485 kts | 61° |
| 2026-04-22 03:27 | 49.68274 | -94.90057 | 32986 ft | 485 kts | 61° |
| 2026-04-22 03:27 | 49.71478 | -94.80924 | 32986 ft | 485 kts | 61° |
| 2026-04-22 03:28 | 49.74690 | -94.71735 | 32986 ft | 485 kts | 61° |
| 2026-04-22 03:28 | 49.77878 | -94.62583 | 32986 ft | 485 kts | 61° |
| 2026-04-22 03:29 | 49.81058 | -94.53420 | 32986 ft | 485 kts | 61° |
| 2026-04-22 03:29 | 49.84224 | -94.44265 | 32986 ft | 485 kts | 61° |
| 2026-04-22 03:30 | 49.87407 | -94.35027 | 32986 ft | 485 kts | 61° |
| 2026-04-22 03:30 | 49.90562 | -94.25839 | 32986 ft | 485 kts | 62° |
| 2026-04-22 03:31 | 49.93735 | -94.16560 | 32986 ft | 485 kts | 62° |
| 2026-04-22 03:31 | 49.96894 | -94.07294 | 32986 ft | 485 kts | 62° |
| 2026-04-22 03:32 | 50.00052 | -93.97994 | 32986 ft | 485 kts | 62° |
| 2026-04-22 03:32 | 50.03191 | -93.88716 | 32986 ft | 485 kts | 62° |
| 2026-04-22 03:33 | 50.06301 | -93.79494 | 32986 ft | 485 kts | 62° |
| 2026-04-22 03:33 | 50.09410 | -93.70235 | 32986 ft | 485 kts | 62° |
| 2026-04-22 03:34 | 50.12540 | -93.60884 | 32986 ft | 485 kts | 62° |
| 2026-04-22 03:34 | 50.15652 | -93.51550 | 32986 ft | 485 kts | 62° |
| 2026-04-22 03:35 | 50.18747 | -93.42234 | 32986 ft | 485 kts | 62° |
| 2026-04-22 03:35 | 50.21841 | -93.32883 | 32986 ft | 485 kts | 63° |
| 2026-04-22 03:36 | 50.24919 | -93.23549 | 32986 ft | 485 kts | 63° |
| 2026-04-22 03:36 | 50.27992 | -93.14194 | 32986 ft | 485 kts | 63° |
| 2026-04-22 03:37 | 50.31046 | -93.04863 | 32986 ft | 485 kts | 63° |
| 2026-04-22 03:37 | 50.34114 | -92.95453 | 32986 ft | 485 kts | 63° |
| 2026-04-22 03:38 | 50.37156 | -92.86089 | 32986 ft | 485 kts | 63° |
| 2026-04-22 03:38 | 50.40205 | -92.76665 | 32986 ft | 485 kts | 63° |
| 2026-04-22 03:39 | 50.43251 | -92.67219 | 32986 ft | 485 kts | 63° |
| 2026-04-22 03:39 | 50.46254 | -92.57833 | 32981 ft | 485 kts | 65° |
| 2026-04-22 03:40 | 50.48888 | -92.48040 | 32986 ft | 485 kts | 67° |
| 2026-04-22 03:40 | 50.51436 | -92.38268 | 32986 ft | 485 kts | 67° |
| 2026-04-22 03:41 | 50.53985 | -92.28432 | 32986 ft | 485 kts | 68° |
| 2026-04-22 03:41 | 50.56521 | -92.18596 | 32986 ft | 485 kts | 68° |
| 2026-04-22 03:42 | 50.59045 | -92.08762 | 32986 ft | 485 kts | 68° |
| 2026-04-22 03:42 | 50.61555 | -91.98940 | 32986 ft | 485 kts | 68° |
| 2026-04-22 03:43 | 50.64053 | -91.89117 | 32986 ft | 485 kts | 68° |
| 2026-04-22 03:43 | 50.66548 | -91.79267 | 32986 ft | 485 kts | 68° |
| 2026-04-22 03:44 | 50.69039 | -91.69389 | 32986 ft | 485 kts | 68° |
| 2026-04-22 03:44 | 50.71518 | -91.59512 | 32986 ft | 484 kts | 68° |
| 2026-04-22 03:45 | 50.73993 | -91.49608 | 32986 ft | 484 kts | 68° |
| 2026-04-22 03:45 | 50.76456 | -91.39706 | 32986 ft | 484 kts | 68° |
| 2026-04-22 03:46 | 50.78892 | -91.29872 | 32986 ft | 484 kts | 69° |
| 2026-04-22 03:46 | 50.81352 | -91.19894 | 32986 ft | 484 kts | 69° |
| 2026-04-22 03:47 | 50.83781 | -91.09998 | 32986 ft | 484 kts | 69° |
| 2026-04-22 03:47 | 50.86213 | -91.00047 | 32986 ft | 484 kts | 69° |
| 2026-04-22 03:48 | 50.88624 | -90.90137 | 32986 ft | 484 kts | 69° |
| 2026-04-22 03:48 | 50.91025 | -90.80222 | 32986 ft | 484 kts | 69° |
| 2026-04-22 03:49 | 50.93436 | -90.70219 | 32986 ft | 484 kts | 69° |
| 2026-04-22 03:49 | 50.95820 | -90.60286 | 32986 ft | 484 kts | 69° |
| 2026-04-22 03:50 | 50.98214 | -90.50263 | 32986 ft | 484 kts | 69° |
| 2026-04-22 03:50 | 51.00571 | -90.40350 | 32986 ft | 484 kts | 69° |
| 2026-04-22 03:51 | 51.02940 | -90.30344 | 32986 ft | 484 kts | 70° |
| 2026-04-22 03:51 | 51.05294 | -90.20349 | 32986 ft | 484 kts | 70° |
| 2026-04-22 03:52 | 51.07644 | -90.10326 | 32986 ft | 484 kts | 70° |
| 2026-04-22 03:52 | 51.09979 | -90.00324 | 32986 ft | 484 kts | 70° |
| 2026-04-22 03:53 | 51.12310 | -89.90289 | 32986 ft | 484 kts | 70° |
| 2026-04-22 03:53 | 51.14634 | -89.80238 | 32986 ft | 484 kts | 70° |
| 2026-04-22 03:54 | 51.16945 | -89.70197 | 32986 ft | 484 kts | 70° |
| 2026-04-22 03:54 | 51.19245 | -89.60155 | 32986 ft | 484 kts | 70° |
| 2026-04-22 03:55 | 51.21535 | -89.50111 | 32986 ft | 484 kts | 70° |
| 2026-04-22 03:55 | 51.23827 | -89.40009 | 32986 ft | 484 kts | 70° |
| 2026-04-22 03:56 | 51.26117 | -89.29864 | 32986 ft | 484 kts | 70° |
| 2026-04-22 03:56 | 51.28392 | -89.19740 | 32986 ft | 484 kts | 70° |
| 2026-04-22 03:57 | 51.30647 | -89.09660 | 32986 ft | 484 kts | 70° |
| 2026-04-22 03:57 | 51.32915 | -88.99468 | 32986 ft | 484 kts | 70° |
| 2026-04-22 03:58 | 51.35155 | -88.89352 | 32986 ft | 484 kts | 70° |
| 2026-04-22 03:58 | 51.37385 | -88.79234 | 32986 ft | 484 kts | 70° |
| 2026-04-22 03:59 | 51.39618 | -88.69051 | 32986 ft | 484 kts | 70° |
| 2026-04-22 03:59 | 51.41828 | -88.58923 | 32986 ft | 484 kts | 70° |
| 2026-04-22 04:00 | 51.44035 | -88.48758 | 32986 ft | 484 kts | 70° |
| 2026-04-22 04:00 | 51.46241 | -88.38551 | 32986 ft | 484 kts | 70° |
| 2026-04-22 04:01 | 51.48436 | -88.28340 | 32986 ft | 484 kts | 71° |
| 2026-04-22 04:01 | 51.50607 | -88.18193 | 32986 ft | 484 kts | 71° |
| 2026-04-22 04:02 | 51.52774 | -88.08012 | 32986 ft | 484 kts | 71° |
| 2026-04-22 04:02 | 51.54945 | -87.97763 | 32986 ft | 484 kts | 71° |
| 2026-04-22 04:03 | 51.57093 | -87.87569 | 32986 ft | 484 kts | 71° |
| 2026-04-22 04:03 | 51.59246 | -87.77300 | 32986 ft | 484 kts | 71° |
| 2026-04-22 04:04 | 51.61381 | -87.67065 | 32986 ft | 484 kts | 71° |
| 2026-04-22 04:04 | 51.63511 | -87.56800 | 32986 ft | 484 kts | 71° |
| 2026-04-22 04:05 | 51.65633 | -87.46519 | 32986 ft | 484 kts | 71° |
| 2026-04-22 04:05 | 51.67750 | -87.36217 | 32986 ft | 484 kts | 71° |
| 2026-04-22 04:06 | 51.69838 | -87.25999 | 32986 ft | 484 kts | 72° |
| 2026-04-22 04:06 | 51.71933 | -87.15688 | 32986 ft | 484 kts | 72° |
| 2026-04-22 04:07 | 51.73998 | -87.05476 | 32986 ft | 484 kts | 72° |
| 2026-04-22 04:07 | 51.76076 | -86.95149 | 32986 ft | 484 kts | 72° |
| 2026-04-22 04:08 | 51.78142 | -86.84819 | 32986 ft | 484 kts | 72° |
| 2026-04-22 04:08 | 51.80205 | -86.74455 | 32986 ft | 484 kts | 72° |
| 2026-04-22 04:09 | 51.82251 | -86.64120 | 32986 ft | 484 kts | 72° |
| 2026-04-22 04:09 | 51.84293 | -86.53750 | 32986 ft | 484 kts | 72° |
| 2026-04-22 04:10 | 51.86319 | -86.43407 | 32986 ft | 484 kts | 72° |
| 2026-04-22 04:10 | 51.88334 | -86.33063 | 32986 ft | 484 kts | 73° |
| 2026-04-22 04:11 | 51.90339 | -86.22716 | 32986 ft | 484 kts | 73° |
| 2026-04-22 04:11 | 51.92327 | -86.12396 | 32986 ft | 484 kts | 73° |
| 2026-04-22 04:12 | 51.94326 | -86.01968 | 32986 ft | 484 kts | 73° |
| 2026-04-22 04:12 | 51.96304 | -85.91592 | 32986 ft | 484 kts | 73° |
| 2026-04-22 04:13 | 51.98289 | -85.81117 | 32986 ft | 484 kts | 73° |
| 2026-04-22 04:13 | 52.00241 | -85.70766 | 32986 ft | 484 kts | 73° |
| 2026-04-22 04:14 | 52.02197 | -85.60334 | 32986 ft | 484 kts | 73° |
| 2026-04-22 04:14 | 52.04161 | -85.49795 | 32986 ft | 484 kts | 73° |
| 2026-04-22 04:15 | 52.06096 | -85.39358 | 32986 ft | 484 kts | 73° |
| 2026-04-22 04:15 | 52.08027 | -85.28879 | 32986 ft | 484 kts | 73° |
| 2026-04-22 04:16 | 52.10913 | -85.13111 | 32986 ft | 484 kts | 73° |
| 2026-04-22 04:17 | 52.12813 | -85.02653 | 32986 ft | 484 kts | 73° |
| 2026-04-22 04:17 | 52.14719 | -84.92105 | 32986 ft | 484 kts | 73° |
| 2026-04-22 04:18 | 52.16592 | -84.81674 | 32986 ft | 484 kts | 73° |
| 2026-04-22 04:18 | 52.18468 | -84.71171 | 32986 ft | 484 kts | 73° |
| 2026-04-22 04:19 | 52.20335 | -84.60655 | 32986 ft | 484 kts | 73° |
| 2026-04-22 04:19 | 52.22194 | -84.50127 | 32987 ft | 484 kts | 73° |
| 2026-04-22 04:20 | 52.24033 | -84.39646 | 32987 ft | 484 kts | 73° |
| 2026-04-22 04:20 | 52.25869 | -84.29117 | 32987 ft | 484 kts | 74° |
| 2026-04-22 04:21 | 52.27694 | -84.18597 | 32987 ft | 484 kts | 74° |
| 2026-04-22 04:21 | 52.29506 | -84.08082 | 32987 ft | 484 kts | 74° |
| 2026-04-22 04:22 | 52.31318 | -83.97510 | 32987 ft | 484 kts | 74° |
| 2026-04-22 04:22 | 52.33123 | -83.86910 | 32987 ft | 484 kts | 74° |
| 2026-04-22 04:23 | 52.34911 | -83.76350 | 32987 ft | 484 kts | 74° |
| 2026-04-22 04:23 | 52.36697 | -83.65738 | 32987 ft | 484 kts | 74° |
| 2026-04-22 04:24 | 52.38461 | -83.55187 | 32987 ft | 484 kts | 74° |
| 2026-04-22 04:24 | 52.40224 | -83.44581 | 32987 ft | 484 kts | 74° |
| 2026-04-22 04:25 | 52.41977 | -83.33962 | 32987 ft | 484 kts | 75° |
| 2026-04-22 04:25 | 52.43721 | -83.23339 | 32987 ft | 484 kts | 75° |
| 2026-04-22 04:26 | 52.45460 | -83.12681 | 32987 ft | 484 kts | 75° |
| 2026-04-22 04:26 | 52.47179 | -83.02074 | 32987 ft | 483 kts | 75° |
| 2026-04-22 04:27 | 52.48893 | -82.91431 | 32987 ft | 483 kts | 75° |
| 2026-04-22 04:27 | 52.50587 | -82.80850 | 32987 ft | 483 kts | 75° |
| 2026-04-22 04:28 | 52.52280 | -82.70207 | 32987 ft | 483 kts | 75° |
| 2026-04-22 04:28 | 52.53972 | -82.59501 | 32987 ft | 483 kts | 75° |
| 2026-04-22 04:29 | 52.55637 | -82.48894 | 32987 ft | 483 kts | 75° |
| 2026-04-22 04:29 | 52.57301 | -82.38223 | 32987 ft | 483 kts | 75° |
| 2026-04-22 04:30 | 52.58948 | -82.27597 | 32987 ft | 483 kts | 76° |
| 2026-04-22 04:30 | 52.60589 | -82.16941 | 32987 ft | 483 kts | 76° |
| 2026-04-22 04:31 | 52.62225 | -82.06239 | 32987 ft | 483 kts | 76° |
| 2026-04-22 04:31 | 52.63856 | -81.95507 | 32987 ft | 483 kts | 76° |
| 2026-04-22 04:32 | 52.65476 | -81.84772 | 32987 ft | 483 kts | 76° |
| 2026-04-22 04:32 | 52.67082 | -81.74055 | 32987 ft | 483 kts | 76° |
| 2026-04-22 04:33 | 52.68676 | -81.63354 | 32987 ft | 483 kts | 76° |
| 2026-04-22 04:33 | 52.70267 | -81.52592 | 32987 ft | 483 kts | 76° |
| 2026-04-22 04:34 | 52.71860 | -81.41741 | 32987 ft | 483 kts | 76° |
| 2026-04-22 04:34 | 52.73417 | -81.31068 | 32987 ft | 483 kts | 77° |
| 2026-04-22 04:35 | 52.74979 | -81.20285 | 32987 ft | 483 kts | 77° |
| 2026-04-22 04:35 | 52.76534 | -81.09471 | 32987 ft | 483 kts | 77° |
| 2026-04-22 04:36 | 52.78074 | -80.98689 | 32987 ft | 483 kts | 77° |
| 2026-04-22 04:36 | 52.79608 | -80.87870 | 32987 ft | 483 kts | 77° |
| 2026-04-22 04:37 | 52.81131 | -80.77060 | 32987 ft | 483 kts | 77° |
| 2026-04-22 04:37 | 52.82642 | -80.66250 | 32987 ft | 483 kts | 77° |
| 2026-04-22 04:38 | 52.84149 | -80.55390 | 32987 ft | 483 kts | 77° |
| 2026-04-22 04:38 | 52.85640 | -80.44568 | 32987 ft | 483 kts | 77° |
| 2026-04-22 04:39 | 52.87121 | -80.33738 | 32987 ft | 483 kts | 77° |
| 2026-04-22 04:39 | 52.88602 | -80.22832 | 32987 ft | 483 kts | 77° |
| 2026-04-22 04:40 | 52.90060 | -80.12011 | 32987 ft | 483 kts | 77° |
| 2026-04-22 04:40 | 52.91282 | -80.01098 | 32982 ft | 483 kts | 86° |
| 2026-04-22 04:41 | 52.91460 | -79.89984 | 32987 ft | 483 kts | 89° |
| 2026-04-22 04:41 | 52.91505 | -79.78876 | 32987 ft | 483 kts | 90° |
| 2026-04-22 04:42 | 52.91499 | -79.67824 | 32987 ft | 483 kts | 90° |
| 2026-04-22 04:42 | 52.91462 | -79.56686 | 32987 ft | 483 kts | 90° |
| 2026-04-22 04:43 | 52.91404 | -79.45637 | 32987 ft | 483 kts | 90° |
| 2026-04-22 04:43 | 52.91328 | -79.34497 | 32987 ft | 483 kts | 91° |
| 2026-04-22 04:44 | 52.91240 | -79.23407 | 32987 ft | 483 kts | 91° |
| 2026-04-22 04:44 | 52.91140 | -79.12305 | 32987 ft | 483 kts | 91° |
| 2026-04-22 04:45 | 52.91028 | -79.01176 | 32987 ft | 483 kts | 91° |
| 2026-04-22 04:45 | 52.90905 | -78.89983 | 32987 ft | 483 kts | 91° |
| 2026-04-22 04:46 | 52.90772 | -78.78908 | 32987 ft | 483 kts | 91° |
| 2026-04-22 04:46 | 52.90629 | -78.67821 | 32987 ft | 483 kts | 91° |
| 2026-04-22 04:47 | 52.90475 | -78.56716 | 32987 ft | 483 kts | 91° |
| 2026-04-22 04:47 | 52.90311 | -78.45628 | 32987 ft | 483 kts | 91° |
| 2026-04-22 04:48 | 52.90137 | -78.34583 | 32986 ft | 482 kts | 92° |
| 2026-04-22 04:48 | 52.89952 | -78.23475 | 32986 ft | 482 kts | 92° |
| 2026-04-22 04:49 | 52.89757 | -78.12399 | 32986 ft | 482 kts | 92° |
| 2026-04-22 04:49 | 52.89556 | -78.01544 | 32986 ft | 482 kts | 92° |
| 2026-04-22 04:50 | 52.89341 | -77.90440 | 32986 ft | 482 kts | 92° |
| 2026-04-22 04:50 | 52.89115 | -77.79356 | 32986 ft | 482 kts | 92° |
| 2026-04-22 04:51 | 52.88878 | -77.68251 | 32986 ft | 482 kts | 92° |
| 2026-04-22 04:51 | 52.88631 | -77.57161 | 32986 ft | 482 kts | 92° |
| 2026-04-22 04:52 | 52.88376 | -77.46147 | 32986 ft | 482 kts | 92° |
| 2026-04-22 04:52 | 52.88109 | -77.35057 | 32986 ft | 482 kts | 92° |
| 2026-04-22 04:53 | 52.87832 | -77.24017 | 32986 ft | 482 kts | 92° |
| 2026-04-22 04:53 | 52.87545 | -77.12947 | 32986 ft | 482 kts | 92° |
| 2026-04-22 04:54 | 52.87248 | -77.01886 | 32986 ft | 482 kts | 92° |
| 2026-04-22 04:54 | 52.86938 | -76.90756 | 32986 ft | 482 kts | 92° |
| 2026-04-22 04:55 | 52.86620 | -76.79723 | 32986 ft | 482 kts | 92° |
| 2026-04-22 04:55 | 52.86292 | -76.68681 | 32986 ft | 482 kts | 92° |
| 2026-04-22 04:56 | 52.85953 | -76.57622 | 32986 ft | 482 kts | 92° |
| 2026-04-22 04:56 | 52.85605 | -76.46577 | 32986 ft | 482 kts | 92° |
| 2026-04-22 04:57 | 52.85242 | -76.35420 | 32986 ft | 482 kts | 92° |
| 2026-04-22 04:57 | 52.84873 | -76.24379 | 32986 ft | 482 kts | 93° |
| 2026-04-22 04:58 | 52.84492 | -76.13309 | 32986 ft | 482 kts | 93° |
| 2026-04-22 04:58 | 52.84103 | -76.02284 | 32986 ft | 482 kts | 93° |
| 2026-04-22 04:59 | 52.83704 | -75.91268 | 32986 ft | 482 kts | 93° |
| 2026-04-22 04:59 | 52.83293 | -75.80238 | 32986 ft | 482 kts | 93° |
| 2026-04-22 05:00 | 52.82868 | -75.69082 | 32986 ft | 482 kts | 93° |
| 2026-04-22 05:00 | 52.82439 | -75.58085 | 32986 ft | 482 kts | 93° |
| 2026-04-22 05:01 | 52.81996 | -75.47020 | 32986 ft | 482 kts | 93° |
| 2026-04-22 05:01 | 52.81547 | -75.36043 | 32986 ft | 482 kts | 93° |
| 2026-04-22 05:02 | 52.81080 | -75.24902 | 32986 ft | 482 kts | 94° |
| 2026-04-22 05:02 | 52.80609 | -75.13884 | 32986 ft | 482 kts | 94° |
| 2026-04-22 05:03 | 52.80126 | -75.02842 | 32986 ft | 482 kts | 94° |
| 2026-04-22 05:03 | 52.80333 | -74.91724 | 32988 ft | 483 kts | 84° |
| 2026-04-22 05:04 | 52.80967 | -74.80684 | 32985 ft | 482 kts | 84° |
| 2026-04-22 05:04 | 52.81568 | -74.69671 | 32985 ft | 482 kts | 84° |
| 2026-04-22 05:05 | 52.82148 | -74.58611 | 32985 ft | 482 kts | 85° |
| 2026-04-22 05:05 | 52.82710 | -74.47546 | 32985 ft | 482 kts | 85° |
| 2026-04-22 05:06 | 52.83256 | -74.36526 | 32985 ft | 482 kts | 85° |
| 2026-04-22 05:06 | 52.83789 | -74.25522 | 32985 ft | 482 kts | 85° |
| 2026-04-22 05:07 | 52.84311 | -74.14498 | 32985 ft | 482 kts | 85° |
| 2026-04-22 05:07 | 52.84826 | -74.03415 | 32985 ft | 482 kts | 85° |
| 2026-04-22 05:08 | 52.85324 | -73.92433 | 32985 ft | 482 kts | 85° |
| 2026-04-22 05:08 | 52.85817 | -73.81358 | 32985 ft | 482 kts | 85° |
| 2026-04-22 05:09 | 52.86296 | -73.70342 | 32985 ft | 482 kts | 85° |
| 2026-04-22 05:09 | 52.86765 | -73.59336 | 32985 ft | 482 kts | 85° |
| 2026-04-22 05:10 | 52.87226 | -73.48266 | 32985 ft | 482 kts | 85° |
| 2026-04-22 05:10 | 52.87674 | -73.37254 | 32985 ft | 482 kts | 85° |
| 2026-04-22 05:11 | 52.88116 | -73.26157 | 32985 ft | 482 kts | 86° |
| 2026-04-22 05:11 | 52.88544 | -73.15131 | 32985 ft | 482 kts | 86° |
| 2026-04-22 05:12 | 52.88962 | -73.04108 | 32985 ft | 482 kts | 86° |
| 2026-04-22 05:12 | 52.89371 | -72.93029 | 32985 ft | 482 kts | 86° |
| 2026-04-22 05:13 | 52.89772 | -72.81902 | 32985 ft | 482 kts | 86° |
| 2026-04-22 05:13 | 52.90160 | -72.70860 | 32985 ft | 482 kts | 86° |
| 2026-04-22 05:14 | 52.90540 | -72.59742 | 32985 ft | 482 kts | 86° |
| 2026-04-22 05:14 | 52.90907 | -72.48676 | 32985 ft | 482 kts | 86° |
| 2026-04-22 05:15 | 52.91264 | -72.37604 | 32985 ft | 482 kts | 86° |
| 2026-04-22 05:15 | 52.91613 | -72.26497 | 32985 ft | 483 kts | 87° |
| 2026-04-22 05:15 | 52.91783 | -72.20952 | 33102 ft | 492 kts | 87° |
| 2026-04-22 05:16 | 52.91955 | -72.15237 | 33631 ft | 491 kts | 87° |
| 2026-04-22 05:16 | 52.92123 | -72.09577 | 34391 ft | 485 kts | 87° |
| 2026-04-22 05:16 | 52.92283 | -72.04092 | 35046 ft | 480 kts | 87° |
| 2026-04-22 05:16 | 52.92442 | -71.98594 | 35529 ft | 479 kts | 87° |
| 2026-04-22 05:17 | 52.92597 | -71.93082 | 35938 ft | 480 kts | 87° |
| 2026-04-22 05:17 | 52.92749 | -71.87630 | 36358 ft | 479 kts | 87° |
| 2026-04-22 05:17 | 52.92900 | -71.82114 | 36753 ft | 479 kts | 87° |
| 2026-04-22 05:17 | 52.93047 | -71.76633 | 36971 ft | 481 kts | 87° |
| 2026-04-22 05:18 | 52.93338 | -71.65569 | 36985 ft | 480 kts | 87° |
| 2026-04-22 05:18 | 52.93615 | -71.54601 | 36985 ft | 480 kts | 87° |
| 2026-04-22 05:19 | 52.93883 | -71.43592 | 36985 ft | 480 kts | 87° |
| 2026-04-22 05:19 | 52.94141 | -71.32561 | 36985 ft | 479 kts | 88° |
| 2026-04-22 05:20 | 52.94389 | -71.21572 | 36985 ft | 479 kts | 88° |
| 2026-04-22 05:20 | 52.94628 | -71.10489 | 36985 ft | 479 kts | 88° |
| 2026-04-22 05:21 | 52.94855 | -70.99460 | 36985 ft | 479 kts | 88° |
| 2026-04-22 05:21 | 52.95072 | -70.88459 | 36985 ft | 479 kts | 88° |
| 2026-04-22 05:22 | 52.95278 | -70.77489 | 36985 ft | 479 kts | 88° |
| 2026-04-22 05:22 | 52.95476 | -70.66419 | 36985 ft | 480 kts | 88° |
| 2026-04-22 05:23 | 52.95662 | -70.55413 | 36985 ft | 480 kts | 88° |
| 2026-04-22 05:23 | 52.95838 | -70.44428 | 36985 ft | 479 kts | 88° |
| 2026-04-22 05:24 | 52.96005 | -70.33376 | 36985 ft | 479 kts | 89° |
| 2026-04-22 05:24 | 52.96161 | -70.22367 | 36985 ft | 479 kts | 89° |
| 2026-04-22 05:25 | 52.96306 | -70.11390 | 36985 ft | 479 kts | 89° |
| 2026-04-22 05:25 | 52.96442 | -70.00372 | 36985 ft | 479 kts | 89° |
| 2026-04-22 05:26 | 52.96567 | -69.89329 | 36985 ft | 480 kts | 89° |
| 2026-04-22 05:26 | 52.96683 | -69.78299 | 36985 ft | 480 kts | 89° |
| 2026-04-22 05:27 | 52.96788 | -69.67306 | 36984 ft | 479 kts | 89° |
| 2026-04-22 05:27 | 52.96883 | -69.56221 | 36985 ft | 479 kts | 89° |
| 2026-04-22 05:28 | 52.96968 | -69.45199 | 36985 ft | 480 kts | 89° |
| 2026-04-22 05:28 | 52.97042 | -69.34133 | 36985 ft | 479 kts | 90° |
| 2026-04-22 05:29 | 52.97107 | -69.23093 | 36985 ft | 479 kts | 90° |
| 2026-04-22 05:29 | 52.97161 | -69.12047 | 36985 ft | 479 kts | 90° |
| 2026-04-22 05:30 | 52.97205 | -69.01073 | 36985 ft | 479 kts | 90° |
| 2026-04-22 05:30 | 52.97238 | -68.89967 | 36985 ft | 479 kts | 90° |
| 2026-04-22 05:31 | 52.97262 | -68.78912 | 36985 ft | 480 kts | 90° |
| 2026-04-22 05:31 | 52.97275 | -68.67837 | 36984 ft | 480 kts | 90° |
| 2026-04-22 05:32 | 52.97278 | -68.56875 | 36985 ft | 479 kts | 90° |
| 2026-04-22 05:32 | 52.97271 | -68.45830 | 36985 ft | 479 kts | 90° |
| 2026-04-22 05:33 | 52.97253 | -68.34754 | 36985 ft | 479 kts | 90° |
| 2026-04-22 05:33 | 52.97225 | -68.23694 | 36985 ft | 479 kts | 90° |
| 2026-04-22 05:34 | 52.97187 | -68.12663 | 36985 ft | 479 kts | 90° |
| 2026-04-22 05:34 | 52.97139 | -68.01640 | 36985 ft | 479 kts | 90° |
| 2026-04-22 05:35 | 52.97081 | -67.90583 | 36985 ft | 479 kts | 90° |
| 2026-04-22 05:35 | 52.97012 | -67.79529 | 36985 ft | 480 kts | 90° |
| 2026-04-22 05:36 | 52.96933 | -67.68547 | 36985 ft | 479 kts | 90° |
| 2026-04-22 05:36 | 52.96844 | -67.57497 | 36985 ft | 479 kts | 90° |
| 2026-04-22 05:37 | 52.96744 | -67.46440 | 36985 ft | 480 kts | 90° |
| 2026-04-22 05:37 | 52.96635 | -67.35392 | 36985 ft | 479 kts | 90° |
| 2026-04-22 05:38 | 52.96515 | -67.24349 | 36985 ft | 479 kts | 91° |
| 2026-04-22 05:38 | 52.96385 | -67.13335 | 36985 ft | 479 kts | 91° |
| 2026-04-22 05:39 | 52.96245 | -67.02300 | 36984 ft | 479 kts | 91° |
| 2026-04-22 05:39 | 52.96094 | -66.91210 | 36984 ft | 479 kts | 91° |
| 2026-04-22 05:40 | 52.96069 | -66.80196 | 36983 ft | 479 kts | 85° |
| 2026-04-22 05:40 | 52.96762 | -66.69211 | 36985 ft | 480 kts | 84° |
| 2026-04-22 05:41 | 52.97430 | -66.58239 | 36985 ft | 480 kts | 84° |
| 2026-04-22 05:41 | 52.98054 | -66.47296 | 36985 ft | 480 kts | 84° |
| 2026-04-22 05:42 | 52.98653 | -66.36289 | 36985 ft | 479 kts | 84° |
| 2026-04-22 05:42 | 52.99229 | -66.25344 | 36985 ft | 480 kts | 85° |
| 2026-04-22 05:43 | 52.99796 | -66.14305 | 36985 ft | 479 kts | 85° |
| 2026-04-22 05:43 | 53.00347 | -66.03300 | 36985 ft | 480 kts | 85° |
| 2026-04-22 05:44 | 53.00888 | -65.92277 | 36985 ft | 479 kts | 85° |
| 2026-04-22 05:44 | 53.01418 | -65.81257 | 36985 ft | 480 kts | 85° |
| 2026-04-22 05:45 | 53.01934 | -65.70290 | 36985 ft | 479 kts | 85° |
| 2026-04-22 05:45 | 53.02442 | -65.59282 | 36985 ft | 479 kts | 85° |
| 2026-04-22 05:46 | 53.02940 | -65.48264 | 36985 ft | 479 kts | 85° |
| 2026-04-22 05:46 | 53.03426 | -65.37280 | 36985 ft | 479 kts | 85° |
| 2026-04-22 05:47 | 53.03907 | -65.26176 | 36985 ft | 479 kts | 86° |
| 2026-04-22 05:47 | 53.04375 | -65.15104 | 36985 ft | 479 kts | 86° |
| 2026-04-22 05:48 | 53.04832 | -65.04092 | 36985 ft | 480 kts | 86° |
| 2026-04-22 05:48 | 53.05283 | -64.92965 | 36985 ft | 480 kts | 86° |
| 2026-04-22 05:49 | 53.05719 | -64.81933 | 36985 ft | 479 kts | 86° |
| 2026-04-22 05:49 | 53.06146 | -64.70868 | 36985 ft | 479 kts | 86° |
| 2026-04-22 05:50 | 53.06560 | -64.59882 | 36985 ft | 479 kts | 86° |
| 2026-04-22 05:50 | 53.06967 | -64.48820 | 36985 ft | 479 kts | 86° |
| 2026-04-22 05:51 | 53.07365 | -64.37696 | 36985 ft | 479 kts | 86° |
| 2026-04-22 05:51 | 53.07750 | -64.26670 | 36985 ft | 479 kts | 87° |
| 2026-04-22 05:52 | 53.08123 | -64.15684 | 36985 ft | 479 kts | 87° |
| 2026-04-22 05:52 | 53.08489 | -64.04607 | 36985 ft | 479 kts | 87° |
| 2026-04-22 05:53 | 53.08843 | -63.93576 | 36985 ft | 479 kts | 87° |
| 2026-04-22 05:53 | 53.09190 | -63.82457 | 36985 ft | 479 kts | 87° |
| 2026-04-22 05:54 | 53.09522 | -63.71458 | 36985 ft | 479 kts | 87° |
| 2026-04-22 05:54 | 53.09847 | -63.60363 | 36985 ft | 480 kts | 87° |
| 2026-04-22 05:55 | 53.10160 | -63.49361 | 36985 ft | 479 kts | 87° |
| 2026-04-22 05:55 | 53.10463 | -63.38321 | 36985 ft | 479 kts | 87° |
| 2026-04-22 05:56 | 53.10757 | -63.27228 | 36985 ft | 479 kts | 88° |
| 2026-04-22 05:56 | 53.11038 | -63.16237 | 36985 ft | 479 kts | 88° |
| 2026-04-22 05:57 | 53.11311 | -63.05185 | 36986 ft | 479 kts | 88° |
| 2026-04-22 05:57 | 53.11573 | -62.94098 | 36986 ft | 479 kts | 88° |
| 2026-04-22 05:58 | 53.11825 | -62.83063 | 36986 ft | 480 kts | 88° |
| 2026-04-22 05:58 | 53.12067 | -62.71998 | 36986 ft | 480 kts | 88° |
| 2026-04-22 05:59 | 53.12299 | -62.60939 | 36986 ft | 480 kts | 88° |
| 2026-04-22 05:59 | 53.12520 | -62.49873 | 36985 ft | 479 kts | 88° |
| 2026-04-22 06:00 | 53.12731 | -62.38840 | 36986 ft | 479 kts | 88° |
| 2026-04-22 06:00 | 53.12931 | -62.27797 | 36986 ft | 479 kts | 88° |
| 2026-04-22 06:01 | 53.13122 | -62.16732 | 36986 ft | 479 kts | 88° |
| 2026-04-22 06:01 | 53.13302 | -62.05664 | 36985 ft | 480 kts | 88° |
| 2026-04-22 06:02 | 53.13472 | -61.94595 | 36986 ft | 480 kts | 88° |
| 2026-04-22 06:02 | 53.13632 | -61.83556 | 36986 ft | 479 kts | 88° |
| 2026-04-22 06:03 | 53.13781 | -61.72497 | 36986 ft | 479 kts | 88° |
| 2026-04-22 06:03 | 53.13921 | -61.61395 | 36986 ft | 479 kts | 88° |
| 2026-04-22 06:04 | 53.14050 | -61.50314 | 36986 ft | 479 kts | 88° |
| 2026-04-22 06:04 | 53.14169 | -61.39255 | 36986 ft | 479 kts | 88° |
| 2026-04-22 06:05 | 53.14278 | -61.28153 | 36986 ft | 479 kts | 89° |
| 2026-04-22 06:05 | 53.14376 | -61.17069 | 36986 ft | 479 kts | 89° |
| 2026-04-22 06:06 | 53.14464 | -61.05991 | 36986 ft | 479 kts | 89° |
| 2026-04-22 06:06 | 53.14542 | -60.94914 | 36986 ft | 479 kts | 89° |
| 2026-04-22 06:07 | 53.14610 | -60.83827 | 36986 ft | 479 kts | 89° |
| 2026-04-22 06:07 | 53.14667 | -60.72734 | 36986 ft | 479 kts | 89° |
| 2026-04-22 06:08 | 53.14714 | -60.61677 | 36986 ft | 480 kts | 89° |
| 2026-04-22 06:08 | 53.14750 | -60.50650 | 36986 ft | 480 kts | 89° |
| 2026-04-22 06:09 | 53.14776 | -60.39546 | 36986 ft | 479 kts | 89° |
| 2026-04-22 06:09 | 53.14792 | -60.28507 | 36986 ft | 479 kts | 90° |
| 2026-04-22 06:10 | 53.14798 | -60.17428 | 36986 ft | 479 kts | 90° |
| 2026-04-22 06:10 | 53.14794 | -60.06308 | 36986 ft | 479 kts | 90° |
| 2026-04-22 06:11 | 53.14779 | -59.95222 | 36986 ft | 479 kts | 90° |
| 2026-04-22 06:11 | 53.14754 | -59.84215 | 36986 ft | 479 kts | 90° |
| 2026-04-22 06:12 | 53.14719 | -59.73145 | 36985 ft | 479 kts | 90° |
| 2026-04-22 06:12 | 53.14673 | -59.62048 | 36985 ft | 480 kts | 90° |
| 2026-04-22 06:13 | 53.14617 | -59.50974 | 36985 ft | 480 kts | 90° |
| 2026-04-22 06:13 | 53.14552 | -59.39905 | 36985 ft | 479 kts | 90° |
| 2026-04-22 06:14 | 53.14475 | -59.28827 | 36985 ft | 479 kts | 91° |
| 2026-04-22 06:14 | 53.14388 | -59.17749 | 36985 ft | 479 kts | 91° |
| 2026-04-22 06:15 | 53.14291 | -59.06658 | 36985 ft | 479 kts | 91° |
| 2026-04-22 06:15 | 53.14184 | -58.95547 | 36985 ft | 480 kts | 91° |
| 2026-04-22 06:16 | 53.14067 | -58.84538 | 36985 ft | 480 kts | 91° |
| 2026-04-22 06:16 | 53.13939 | -58.73448 | 36985 ft | 480 kts | 91° |
| 2026-04-22 06:17 | 53.13801 | -58.62383 | 36985 ft | 480 kts | 91° |
| 2026-04-22 06:17 | 53.13652 | -58.51284 | 36985 ft | 479 kts | 91° |
| 2026-04-22 06:18 | 53.13494 | -58.40210 | 36986 ft | 479 kts | 91° |
| 2026-04-22 06:18 | 53.13324 | -58.29079 | 36986 ft | 480 kts | 91° |
| 2026-04-22 06:19 | 53.13145 | -58.18024 | 36986 ft | 479 kts | 91° |
| 2026-04-22 06:19 | 53.12955 | -58.06925 | 36986 ft | 479 kts | 91° |
| 2026-04-22 06:20 | 53.12756 | -57.95893 | 36986 ft | 479 kts | 91° |
| 2026-04-22 06:20 | 53.12545 | -57.84793 | 36986 ft | 479 kts | 91° |
| 2026-04-22 06:21 | 53.12326 | -57.73776 | 36986 ft | 480 kts | 91° |
| 2026-04-22 06:21 | 53.12095 | -57.62688 | 36986 ft | 479 kts | 91° |
| 2026-04-22 06:22 | 53.11855 | -57.51647 | 36986 ft | 479 kts | 91° |
| 2026-04-22 06:22 | 53.11605 | -57.40641 | 36986 ft | 479 kts | 91° |
| 2026-04-22 06:23 | 53.11344 | -57.29598 | 36986 ft | 479 kts | 92° |
| 2026-04-22 06:23 | 53.11072 | -57.18501 | 36985 ft | 479 kts | 92° |
| 2026-04-22 06:24 | 53.10646 | -57.01939 | 36985 ft | 480 kts | 92° |
| 2026-04-22 06:25 | 53.10351 | -56.90933 | 36985 ft | 479 kts | 92° |
| 2026-04-22 06:25 | 53.10288 | -56.79856 | 36981 ft | 479 kts | 83° |
| 2026-04-22 06:26 | 53.11935 | -56.69150 | 36980 ft | 480 kts | 66° |
| 2026-04-22 06:26 | 53.15234 | -56.59517 | 36986 ft | 480 kts | 58° |
| 2026-04-22 06:27 | 53.18648 | -56.50000 | 36986 ft | 480 kts | 59° |
| 2026-04-22 06:27 | 53.21910 | -56.40372 | 36986 ft | 480 kts | 60° |
| 2026-04-22 06:28 | 53.25107 | -56.30617 | 36986 ft | 479 kts | 62° |
| 2026-04-22 06:28 | 53.28249 | -56.20836 | 36987 ft | 479 kts | 62° |
| 2026-04-22 06:29 | 53.31352 | -56.11053 | 36987 ft | 479 kts | 62° |
| 2026-04-22 06:29 | 53.34455 | -56.01188 | 36987 ft | 479 kts | 62° |
| 2026-04-22 06:30 | 53.37545 | -55.91298 | 36987 ft | 480 kts | 62° |
| 2026-04-22 06:30 | 53.40615 | -55.81419 | 36987 ft | 479 kts | 62° |
| 2026-04-22 06:31 | 53.43662 | -55.71566 | 36987 ft | 479 kts | 62° |
| 2026-04-22 06:31 | 53.46717 | -55.61642 | 36987 ft | 479 kts | 62° |
| 2026-04-22 06:32 | 53.49751 | -55.51746 | 36986 ft | 479 kts | 62° |
| 2026-04-22 06:32 | 53.52787 | -55.41801 | 36986 ft | 479 kts | 62° |
| 2026-04-22 06:33 | 53.55834 | -55.31778 | 36986 ft | 480 kts | 63° |
| 2026-04-22 06:33 | 53.58848 | -55.21822 | 36986 ft | 479 kts | 63° |
| 2026-04-22 06:34 | 53.61848 | -55.11871 | 36986 ft | 479 kts | 63° |
| 2026-04-22 06:34 | 53.64854 | -55.01857 | 36986 ft | 479 kts | 63° |
| 2026-04-22 06:35 | 53.67836 | -54.91880 | 36986 ft | 479 kts | 63° |
| 2026-04-22 06:35 | 53.70826 | -54.81833 | 36986 ft | 480 kts | 63° |
| 2026-04-22 06:36 | 53.73811 | -54.71762 | 36986 ft | 480 kts | 63° |
| 2026-04-22 06:36 | 53.76763 | -54.61761 | 36986 ft | 479 kts | 63° |
| 2026-04-22 06:37 | 53.79726 | -54.51678 | 36986 ft | 480 kts | 63° |
| 2026-04-22 06:37 | 53.82682 | -54.41576 | 36986 ft | 480 kts | 63° |
| 2026-04-22 06:38 | 53.85631 | -54.31456 | 36987 ft | 479 kts | 64° |
| 2026-04-22 06:38 | 53.88567 | -54.21338 | 36987 ft | 479 kts | 64° |
| 2026-04-22 06:39 | 53.91493 | -54.11209 | 36987 ft | 479 kts | 64° |
| 2026-04-22 06:39 | 53.94422 | -54.01026 | 36987 ft | 479 kts | 64° |
| 2026-04-22 06:40 | 53.97314 | -53.90928 | 36987 ft | 479 kts | 64° |
| 2026-04-22 06:40 | 54.00216 | -53.80753 | 36987 ft | 480 kts | 64° |
| 2026-04-22 06:41 | 54.03104 | -53.70579 | 36987 ft | 479 kts | 64° |
| 2026-04-22 06:41 | 54.05983 | -53.60395 | 36987 ft | 479 kts | 64° |
| 2026-04-22 06:42 | 54.08847 | -53.50220 | 36987 ft | 479 kts | 64° |
| 2026-04-22 06:42 | 54.11712 | -53.39993 | 36987 ft | 479 kts | 64° |
| 2026-04-22 06:43 | 54.14567 | -53.29761 | 36987 ft | 479 kts | 65° |
| 2026-04-22 06:43 | 54.17437 | -53.19429 | 36987 ft | 479 kts | 65° |
| 2026-04-22 06:44 | 54.20260 | -53.09217 | 36987 ft | 479 kts | 65° |
| 2026-04-22 06:44 | 54.23087 | -52.98951 | 36987 ft | 479 kts | 65° |
| 2026-04-22 06:45 | 54.25916 | -52.88625 | 36987 ft | 479 kts | 65° |
| 2026-04-22 06:45 | 54.28722 | -52.78342 | 36987 ft | 479 kts | 65° |
| 2026-04-22 06:46 | 54.31532 | -52.67994 | 36987 ft | 479 kts | 65° |
| 2026-04-22 06:46 | 54.34319 | -52.57688 | 36987 ft | 480 kts | 65° |
| 2026-04-22 06:47 | 54.37104 | -52.47342 | 36987 ft | 480 kts | 65° |
| 2026-04-22 06:47 | 54.39870 | -52.37018 | 36987 ft | 479 kts | 65° |
| 2026-04-22 06:48 | 54.42645 | -52.26613 | 36987 ft | 479 kts | 65° |
| 2026-04-22 06:48 | 54.45411 | -52.16196 | 36986 ft | 479 kts | 65° |
| 2026-04-22 06:49 | 54.48164 | -52.05780 | 36986 ft | 479 kts | 65° |
| 2026-04-22 06:49 | 54.50895 | -51.95399 | 36986 ft | 479 kts | 65° |
| 2026-04-22 06:50 | 54.53632 | -51.84946 | 36986 ft | 479 kts | 65° |
| 2026-04-22 06:50 | 54.56346 | -51.74535 | 36986 ft | 480 kts | 65° |
| 2026-04-22 06:51 | 54.59058 | -51.64083 | 36986 ft | 480 kts | 65° |
| 2026-04-22 06:51 | 54.61771 | -51.53576 | 36986 ft | 479 kts | 65° |
| 2026-04-22 06:52 | 54.64456 | -51.43133 | 36986 ft | 479 kts | 65° |
| 2026-04-22 06:52 | 54.67138 | -51.32648 | 36986 ft | 479 kts | 66° |
| 2026-04-22 06:53 | 54.69821 | -51.22113 | 36986 ft | 479 kts | 66° |
| 2026-04-22 06:53 | 54.72478 | -51.11628 | 36986 ft | 479 kts | 66° |
| 2026-04-22 06:54 | 54.75140 | -51.01077 | 36987 ft | 479 kts | 66° |
| 2026-04-22 06:54 | 54.77784 | -50.90544 | 36987 ft | 479 kts | 66° |
| 2026-04-22 06:55 | 54.80417 | -50.80004 | 36987 ft | 480 kts | 66° |
| 2026-04-22 06:55 | 54.83062 | -50.69368 | 36987 ft | 479 kts | 66° |
| 2026-04-22 06:56 | 54.85670 | -50.58827 | 36987 ft | 479 kts | 66° |
| 2026-04-22 06:56 | 54.88281 | -50.48226 | 36986 ft | 479 kts | 66° |
| 2026-04-22 06:57 | 54.90886 | -50.37600 | 36986 ft | 479 kts | 66° |
| 2026-04-22 06:57 | 54.93485 | -50.26943 | 36986 ft | 479 kts | 67° |
| 2026-04-22 06:58 | 54.96060 | -50.16333 | 36986 ft | 479 kts | 67° |
| 2026-04-22 06:58 | 54.98646 | -50.05627 | 36986 ft | 479 kts | 67° |
| 2026-04-22 06:59 | 55.01232 | -49.95012 | 36988 ft | 479 kts | 66° |
| 2026-04-22 06:59 | 55.03919 | -49.84377 | 36986 ft | 479 kts | 66° |
| 2026-04-22 07:00 | 55.06578 | -49.73788 | 36987 ft | 479 kts | 66° |
| 2026-04-22 07:00 | 55.09235 | -49.63141 | 36987 ft | 479 kts | 66° |
| 2026-04-22 07:01 | 55.11865 | -49.52542 | 36987 ft | 479 kts | 66° |
| 2026-04-22 07:01 | 55.14501 | -49.41866 | 36987 ft | 479 kts | 66° |
| 2026-04-22 07:02 | 55.17120 | -49.31205 | 36987 ft | 480 kts | 67° |
| 2026-04-22 07:02 | 55.19723 | -49.20555 | 36987 ft | 479 kts | 67° |
| 2026-04-22 07:03 | 55.22337 | -49.09811 | 36986 ft | 479 kts | 67° |
| 2026-04-22 07:03 | 55.24932 | -48.99087 | 36987 ft | 479 kts | 67° |
| 2026-04-22 07:04 | 55.27508 | -48.88388 | 36987 ft | 480 kts | 67° |
| 2026-04-22 07:04 | 55.30087 | -48.77629 | 36987 ft | 480 kts | 67° |
| 2026-04-22 07:05 | 55.32653 | -48.66866 | 36987 ft | 479 kts | 67° |
| 2026-04-22 07:05 | 55.35213 | -48.56077 | 36987 ft | 479 kts | 67° |
| 2026-04-22 07:06 | 55.37763 | -48.45274 | 36987 ft | 479 kts | 67° |
| 2026-04-22 07:06 | 55.40309 | -48.34434 | 36987 ft | 479 kts | 68° |
| 2026-04-22 07:07 | 55.42839 | -48.23608 | 36987 ft | 479 kts | 68° |
| 2026-04-22 07:07 | 55.45351 | -48.12806 | 36987 ft | 479 kts | 68° |
| 2026-04-22 07:08 | 55.47866 | -48.01931 | 36987 ft | 479 kts | 68° |
| 2026-04-22 07:08 | 55.50383 | -47.91000 | 36987 ft | 479 kts | 68° |
| 2026-04-22 07:09 | 55.52862 | -47.80172 | 36987 ft | 479 kts | 68° |
| 2026-04-22 07:09 | 55.55338 | -47.69303 | 36987 ft | 480 kts | 68° |
| 2026-04-22 07:10 | 55.57806 | -47.58412 | 36987 ft | 479 kts | 68° |
| 2026-04-22 07:10 | 55.60269 | -47.47488 | 36987 ft | 479 kts | 68° |
| 2026-04-22 07:11 | 55.62724 | -47.36543 | 36987 ft | 479 kts | 68° |
| 2026-04-22 07:11 | 55.65167 | -47.25595 | 36987 ft | 479 kts | 69° |
| 2026-04-22 07:12 | 55.67583 | -47.14710 | 36987 ft | 479 kts | 69° |
| 2026-04-22 07:12 | 55.70015 | -47.03695 | 36987 ft | 479 kts | 69° |
| 2026-04-22 07:13 | 55.72410 | -46.92792 | 36987 ft | 479 kts | 69° |
| 2026-04-22 07:13 | 55.74824 | -46.81741 | 36987 ft | 479 kts | 69° |
| 2026-04-22 07:14 | 55.77206 | -46.70779 | 36987 ft | 480 kts | 69° |
| 2026-04-22 07:14 | 55.79598 | -46.59714 | 36987 ft | 479 kts | 69° |
| 2026-04-22 07:15 | 55.81972 | -46.48668 | 36987 ft | 479 kts | 69° |
| 2026-04-22 07:15 | 55.84330 | -46.37643 | 36987 ft | 479 kts | 69° |
| 2026-04-22 07:16 | 55.86682 | -46.26584 | 36987 ft | 479 kts | 69° |
| 2026-04-22 07:16 | 55.89027 | -46.15498 | 36987 ft | 479 kts | 69° |
| 2026-04-22 07:17 | 55.91372 | -46.04353 | 36987 ft | 479 kts | 69° |
| 2026-04-22 07:17 | 55.93682 | -45.93310 | 36987 ft | 480 kts | 69° |
| 2026-04-22 07:18 | 55.95998 | -45.82182 | 36987 ft | 480 kts | 69° |
| 2026-04-22 07:18 | 55.98318 | -45.70966 | 36987 ft | 479 kts | 69° |
| 2026-04-22 07:19 | 56.00600 | -45.59880 | 36987 ft | 479 kts | 69° |
| 2026-04-22 07:19 | 56.02874 | -45.48767 | 36987 ft | 479 kts | 69° |
| 2026-04-22 07:20 | 56.05156 | -45.37550 | 36987 ft | 479 kts | 69° |
| 2026-04-22 07:20 | 56.07421 | -45.26358 | 36987 ft | 479 kts | 70° |
| 2026-04-22 07:21 | 56.09678 | -45.15138 | 36987 ft | 480 kts | 70° |
| 2026-04-22 07:21 | 56.11917 | -45.03946 | 36987 ft | 479 kts | 70° |
| 2026-04-22 07:22 | 56.14154 | -44.92703 | 36987 ft | 479 kts | 70° |
| 2026-04-22 07:22 | 56.16366 | -44.81518 | 36987 ft | 479 kts | 70° |
| 2026-04-22 07:23 | 56.18586 | -44.70231 | 36987 ft | 479 kts | 70° |
| 2026-04-22 07:23 | 56.20790 | -44.58958 | 36987 ft | 479 kts | 70° |
| 2026-04-22 07:24 | 56.22969 | -44.47746 | 36987 ft | 479 kts | 70° |
| 2026-04-22 07:24 | 56.25155 | -44.36435 | 36987 ft | 479 kts | 70° |
| 2026-04-22 07:25 | 56.27330 | -44.25112 | 36987 ft | 479 kts | 71° |
| 2026-04-22 07:25 | 56.29493 | -44.13789 | 36987 ft | 479 kts | 71° |
| 2026-04-22 07:26 | 56.31639 | -44.02487 | 36987 ft | 479 kts | 71° |
| 2026-04-22 07:26 | 56.33770 | -43.91196 | 36987 ft | 479 kts | 71° |
| 2026-04-22 07:27 | 56.35899 | -43.79850 | 36987 ft | 479 kts | 71° |
| 2026-04-22 07:27 | 56.38025 | -43.68452 | 36987 ft | 480 kts | 71° |
| 2026-04-22 07:28 | 56.41182 | -43.51397 | 36987 ft | 479 kts | 71° |
| 2026-04-22 07:28 | 56.43267 | -43.40043 | 36987 ft | 479 kts | 71° |
| 2026-04-22 07:29 | 56.45352 | -43.28627 | 36987 ft | 479 kts | 72° |
| 2026-04-22 07:29 | 56.47425 | -43.17204 | 36987 ft | 479 kts | 72° |
| 2026-04-22 07:30 | 56.49477 | -43.05825 | 36987 ft | 479 kts | 72° |
| 2026-04-22 07:30 | 56.51536 | -42.94340 | 36987 ft | 479 kts | 72° |
| 2026-04-22 07:31 | 56.53571 | -42.82914 | 36987 ft | 479 kts | 72° |
| 2026-04-22 07:31 | 56.55599 | -42.71458 | 36987 ft | 479 kts | 72° |
| 2026-04-22 07:32 | 56.57613 | -42.60006 | 36987 ft | 480 kts | 72° |
| 2026-04-22 07:32 | 56.59626 | -42.48494 | 36987 ft | 479 kts | 72° |
| 2026-04-22 07:33 | 56.61622 | -42.37002 | 36987 ft | 479 kts | 72° |
| 2026-04-22 07:33 | 56.63605 | -42.25513 | 36987 ft | 479 kts | 73° |
| 2026-04-22 07:34 | 56.65585 | -42.13967 | 36987 ft | 479 kts | 73° |
| 2026-04-22 07:34 | 56.67551 | -42.02429 | 36987 ft | 479 kts | 73° |
| 2026-04-22 07:35 | 56.69500 | -41.90917 | 36987 ft | 479 kts | 73° |
| 2026-04-22 07:35 | 56.71455 | -41.79288 | 36987 ft | 479 kts | 73° |
| 2026-04-22 07:36 | 56.73385 | -41.67740 | 36987 ft | 480 kts | 73° |
| 2026-04-22 07:36 | 56.75308 | -41.56159 | 36987 ft | 480 kts | 73° |
| 2026-04-22 07:37 | 56.77216 | -41.44585 | 36987 ft | 479 kts | 73° |
| 2026-04-22 07:37 | 56.79115 | -41.32901 | 36984 ft | 479 kts | 75° |
| 2026-04-22 07:38 | 56.81008 | -41.21276 | 36987 ft | 480 kts | 73° |
| 2026-04-22 07:38 | 56.82890 | -41.09666 | 36987 ft | 480 kts | 73° |
| 2026-04-22 07:39 | 56.84771 | -40.97972 | 36987 ft | 479 kts | 73° |
| 2026-04-22 07:39 | 56.86624 | -40.86356 | 36987 ft | 479 kts | 73° |
| 2026-04-22 07:40 | 56.88479 | -40.74645 | 36987 ft | 479 kts | 73° |
| 2026-04-22 07:40 | 56.90312 | -40.62994 | 36987 ft | 479 kts | 73° |
| 2026-04-22 07:41 | 56.92136 | -40.51311 | 36987 ft | 479 kts | 73° |
| 2026-04-22 07:41 | 56.93871 | -40.40126 | 36987 ft | 480 kts | 73° |
| 2026-04-22 07:42 | 56.95678 | -40.28402 | 36987 ft | 479 kts | 74° |
| 2026-04-22 07:42 | 56.97459 | -40.16754 | 36987 ft | 479 kts | 74° |
| 2026-04-22 07:43 | 56.99254 | -40.04937 | 36987 ft | 479 kts | 74° |
| 2026-04-22 07:43 | 57.00969 | -39.93169 | 36987 ft | 480 kts | 75° |
| 2026-04-22 07:44 | 57.02651 | -39.81358 | 36987 ft | 479 kts | 75° |
| 2026-04-22 07:44 | 57.04313 | -39.69587 | 36987 ft | 479 kts | 75° |
| 2026-04-22 07:45 | 57.05969 | -39.57763 | 36987 ft | 480 kts | 75° |
| 2026-04-22 07:45 | 57.07690 | -39.45375 | 36987 ft | 479 kts | 75° |
| 2026-04-22 07:46 | 57.09316 | -39.33579 | 36987 ft | 479 kts | 76° |
| 2026-04-22 07:46 | 57.10943 | -39.21679 | 36987 ft | 479 kts | 76° |
| 2026-04-22 07:47 | 57.12548 | -39.09847 | 36986 ft | 480 kts | 76° |
| 2026-04-22 07:47 | 57.14142 | -38.98003 | 36987 ft | 480 kts | 76° |
| 2026-04-22 07:48 | 57.15734 | -38.86084 | 36987 ft | 479 kts | 76° |
| 2026-04-22 07:48 | 57.17309 | -38.74196 | 36987 ft | 479 kts | 76° |
| 2026-04-22 07:49 | 57.18868 | -38.62333 | 36987 ft | 479 kts | 76° |
| 2026-04-22 07:49 | 57.20425 | -38.50389 | 36987 ft | 479 kts | 76° |
| 2026-04-22 07:50 | 57.21965 | -38.38486 | 36987 ft | 479 kts | 76° |
| 2026-04-22 07:50 | 57.23488 | -38.26613 | 36987 ft | 479 kts | 77° |
| 2026-04-22 07:51 | 57.25015 | -38.14604 | 36987 ft | 479 kts | 77° |
| 2026-04-22 07:51 | 57.26521 | -38.02665 | 36987 ft | 479 kts | 77° |
| 2026-04-22 07:52 | 57.28019 | -37.90693 | 36987 ft | 479 kts | 77° |
| 2026-04-22 07:52 | 57.29505 | -37.78717 | 36987 ft | 479 kts | 77° |
| 2026-04-22 07:53 | 57.30981 | -37.66718 | 36987 ft | 480 kts | 77° |
| 2026-04-22 07:53 | 57.32440 | -37.54754 | 36987 ft | 480 kts | 77° |
| 2026-04-22 07:54 | 57.33888 | -37.42775 | 36987 ft | 479 kts | 77° |
| 2026-04-22 07:54 | 57.35340 | -37.30666 | 36987 ft | 479 kts | 78° |
| 2026-04-22 07:55 | 57.36762 | -37.18692 | 36987 ft | 479 kts | 78° |
| 2026-04-22 07:55 | 57.38187 | -37.06594 | 36987 ft | 479 kts | 78° |
| 2026-04-22 07:56 | 57.39598 | -36.94506 | 36986 ft | 480 kts | 78° |
| 2026-04-22 07:56 | 57.40987 | -36.82494 | 36987 ft | 480 kts | 78° |
| 2026-04-22 07:57 | 57.42373 | -36.70404 | 36987 ft | 479 kts | 78° |
| 2026-04-22 07:57 | 57.43750 | -36.58282 | 36987 ft | 479 kts | 78° |
| 2026-04-22 07:58 | 57.45106 | -36.46233 | 36987 ft | 479 kts | 78° |
| 2026-04-22 07:58 | 57.46457 | -36.34120 | 36987 ft | 479 kts | 78° |
| 2026-04-22 07:59 | 57.47798 | -36.21977 | 36987 ft | 479 kts | 78° |
| 2026-04-22 07:59 | 57.49120 | -36.09894 | 36987 ft | 479 kts | 78° |
| 2026-04-22 08:00 | 57.50442 | -35.97704 | 36987 ft | 479 kts | 78° |
| 2026-04-22 08:00 | 57.51740 | -35.85608 | 36987 ft | 479 kts | 78° |
| 2026-04-22 08:01 | 57.53034 | -35.73436 | 36987 ft | 479 kts | 78° |
| 2026-04-22 08:01 | 57.54314 | -35.61275 | 36987 ft | 480 kts | 78° |
| 2026-04-22 08:02 | 57.55576 | -35.49169 | 36987 ft | 479 kts | 78° |
| 2026-04-22 08:02 | 57.56838 | -35.36945 | 36987 ft | 479 kts | 78° |
| 2026-04-22 08:03 | 57.58085 | -35.24745 | 36987 ft | 479 kts | 79° |
| 2026-04-22 08:03 | 57.59311 | -35.12622 | 36987 ft | 479 kts | 79° |
| 2026-04-22 08:04 | 57.60539 | -35.00351 | 36987 ft | 479 kts | 79° |
| 2026-04-22 08:04 | 57.61744 | -34.88192 | 36987 ft | 479 kts | 79° |
| 2026-04-22 08:05 | 57.62942 | -34.75973 | 36987 ft | 480 kts | 79° |
| 2026-04-22 08:05 | 57.64125 | -34.63780 | 36987 ft | 480 kts | 79° |
| 2026-04-22 08:06 | 57.65295 | -34.51593 | 36987 ft | 479 kts | 79° |
| 2026-04-22 08:06 | 57.66458 | -34.39352 | 36987 ft | 479 kts | 79° |
| 2026-04-22 08:07 | 57.67606 | -34.27136 | 36987 ft | 479 kts | 80° |
| 2026-04-22 08:07 | 57.68742 | -34.14915 | 36987 ft | 479 kts | 80° |
| 2026-04-22 08:08 | 57.69873 | -34.02611 | 36987 ft | 479 kts | 80° |
| 2026-04-22 08:08 | 57.70989 | -33.90326 | 36987 ft | 480 kts | 80° |
| 2026-04-22 08:09 | 57.72091 | -33.78068 | 36987 ft | 480 kts | 80° |
| 2026-04-22 08:09 | 57.73179 | -33.65816 | 36987 ft | 479 kts | 80° |
| 2026-04-22 08:10 | 57.74255 | -33.53568 | 36987 ft | 479 kts | 80° |
| 2026-04-22 08:10 | 57.75322 | -33.41275 | 36987 ft | 479 kts | 80° |
| 2026-04-22 08:11 | 57.76373 | -33.29019 | 36987 ft | 479 kts | 81° |
| 2026-04-22 08:11 | 57.77418 | -33.16698 | 36987 ft | 479 kts | 81° |
| 2026-04-22 08:12 | 57.78450 | -33.04366 | 36987 ft | 479 kts | 81° |
| 2026-04-22 08:12 | 57.79463 | -32.92128 | 36987 ft | 479 kts | 81° |
| 2026-04-22 08:13 | 57.80473 | -32.79764 | 36987 ft | 479 kts | 81° |
| 2026-04-22 08:13 | 57.81469 | -32.67436 | 36987 ft | 479 kts | 81° |
| 2026-04-22 08:14 | 57.82452 | -32.55088 | 36987 ft | 479 kts | 81° |
| 2026-04-22 08:14 | 57.83429 | -32.42675 | 36987 ft | 479 kts | 81° |
| 2026-04-22 08:15 | 57.84384 | -32.30381 | 36987 ft | 479 kts | 82° |
| 2026-04-22 08:15 | 57.85327 | -32.18068 | 36987 ft | 479 kts | 82° |
| 2026-04-22 08:16 | 57.86263 | -32.05708 | 36987 ft | 479 kts | 82° |
| 2026-04-22 08:16 | 57.87187 | -31.93316 | 36987 ft | 479 kts | 82° |
| 2026-04-22 08:17 | 57.88101 | -31.80901 | 36987 ft | 479 kts | 82° |
| 2026-04-22 08:17 | 57.89000 | -31.68520 | 36987 ft | 479 kts | 82° |
| 2026-04-22 08:18 | 57.89887 | -31.56134 | 36987 ft | 479 kts | 82° |
| 2026-04-22 08:18 | 57.90760 | -31.43764 | 36987 ft | 479 kts | 82° |
| 2026-04-22 08:19 | 57.91625 | -31.31334 | 36987 ft | 479 kts | 83° |
| 2026-04-22 08:19 | 57.92475 | -31.18942 | 36987 ft | 479 kts | 83° |
| 2026-04-22 08:20 | 57.93311 | -31.06573 | 36987 ft | 479 kts | 83° |
| 2026-04-22 08:20 | 57.94142 | -30.94089 | 36987 ft | 479 kts | 83° |
| 2026-04-22 08:21 | 57.94953 | -30.81721 | 36987 ft | 479 kts | 83° |
| 2026-04-22 08:21 | 57.95758 | -30.69245 | 36987 ft | 479 kts | 83° |
| 2026-04-22 08:22 | 57.96546 | -30.56846 | 36987 ft | 479 kts | 83° |
| 2026-04-22 08:22 | 57.97328 | -30.44338 | 36987 ft | 479 kts | 83° |
| 2026-04-22 08:23 | 57.98091 | -30.31945 | 36987 ft | 479 kts | 84° |
| 2026-04-22 08:23 | 57.98848 | -30.19437 | 36987 ft | 479 kts | 84° |
| 2026-04-22 08:24 | 57.99526 | -30.06974 | 36981 ft | 479 kts | 88° |
| 2026-04-22 08:24 | 57.98788 | -29.94581 | 36986 ft | 479 kts | 103° |
| 2026-04-22 08:25 | 57.97128 | -29.82449 | 36987 ft | 479 kts | 105° |
| 2026-04-22 08:25 | 57.95375 | -29.70388 | 36987 ft | 479 kts | 105° |
| 2026-04-22 08:26 | 57.93572 | -29.58381 | 36987 ft | 479 kts | 105° |
| 2026-04-22 08:26 | 57.91729 | -29.46357 | 36987 ft | 479 kts | 105° |
| 2026-04-22 08:27 | 57.89862 | -29.34343 | 36987 ft | 479 kts | 107° |
| 2026-04-22 08:27 | 57.87982 | -29.22373 | 36987 ft | 479 kts | 107° |
| 2026-04-22 08:28 | 57.86079 | -29.10365 | 36987 ft | 479 kts | 107° |
| 2026-04-22 08:28 | 57.84166 | -28.98386 | 36987 ft | 479 kts | 107° |
| 2026-04-22 08:29 | 57.82255 | -28.86518 | 36987 ft | 479 kts | 107° |
| 2026-04-22 08:29 | 57.80317 | -28.74562 | 36987 ft | 479 kts | 107° |
| 2026-04-22 08:30 | 57.78376 | -28.62668 | 36987 ft | 479 kts | 107° |
| 2026-04-22 08:30 | 57.76418 | -28.50760 | 36987 ft | 479 kts | 107° |
| 2026-04-22 08:31 | 57.74463 | -28.38944 | 36987 ft | 479 kts | 107° |
| 2026-04-22 08:32 | 57.71484 | -28.21091 | 36987 ft | 479 kts | 107° |
| 2026-04-22 08:32 | 57.69501 | -28.09314 | 36987 ft | 479 kts | 107° |
| 2026-04-22 08:33 | 57.67491 | -27.97447 | 36987 ft | 479 kts | 107° |
| 2026-04-22 08:33 | 57.65477 | -27.85636 | 36987 ft | 479 kts | 107° |
| 2026-04-22 08:34 | 57.63456 | -27.73858 | 36987 ft | 479 kts | 107° |
| 2026-04-22 08:34 | 57.61424 | -27.62100 | 36987 ft | 479 kts | 107° |
| 2026-04-22 08:35 | 57.59373 | -27.50305 | 36987 ft | 479 kts | 107° |
| 2026-04-22 08:35 | 57.57311 | -27.38524 | 36987 ft | 479 kts | 107° |
| 2026-04-22 08:36 | 57.55240 | -27.26767 | 36987 ft | 479 kts | 108° |
| 2026-04-22 08:36 | 57.53171 | -27.15100 | 36987 ft | 479 kts | 108° |
| 2026-04-22 08:37 | 57.51082 | -27.03384 | 36987 ft | 479 kts | 108° |
| 2026-04-22 08:37 | 57.48980 | -26.91682 | 36987 ft | 479 kts | 108° |
| 2026-04-22 08:38 | 57.46854 | -26.79914 | 36987 ft | 479 kts | 108° |
| 2026-04-22 08:38 | 57.44733 | -26.68247 | 36987 ft | 479 kts | 108° |
| 2026-04-22 08:39 | 57.42610 | -26.56643 | 36987 ft | 479 kts | 108° |
| 2026-04-22 08:39 | 57.40450 | -26.44911 | 36987 ft | 479 kts | 108° |
| 2026-04-22 08:40 | 57.38303 | -26.33314 | 36987 ft | 479 kts | 109° |
| 2026-04-22 08:40 | 57.36131 | -26.21661 | 36987 ft | 479 kts | 109° |
| 2026-04-22 08:41 | 57.33945 | -26.10003 | 36987 ft | 479 kts | 109° |
| 2026-04-22 08:41 | 57.31764 | -25.98443 | 36987 ft | 479 kts | 109° |
| 2026-04-22 08:42 | 57.29568 | -25.86871 | 36987 ft | 479 kts | 109° |
| 2026-04-22 08:42 | 57.27359 | -25.75306 | 36987 ft | 479 kts | 109° |
| 2026-04-22 08:43 | 57.25131 | -25.63702 | 36987 ft | 479 kts | 109° |
| 2026-04-22 08:43 | 57.22904 | -25.52180 | 36987 ft | 479 kts | 109° |
| 2026-04-22 08:44 | 57.20673 | -25.40705 | 36987 ft | 479 kts | 109° |
| 2026-04-22 08:44 | 57.18416 | -25.29164 | 36987 ft | 479 kts | 110° |
| 2026-04-22 08:45 | 57.16147 | -25.17629 | 36987 ft | 479 kts | 110° |
| 2026-04-22 08:45 | 57.13864 | -25.06090 | 36987 ft | 479 kts | 110° |
| 2026-04-22 08:46 | 57.11583 | -24.94631 | 36987 ft | 479 kts | 110° |
| 2026-04-22 08:46 | 57.09280 | -24.83124 | 36987 ft | 479 kts | 110° |
| 2026-04-22 08:47 | 57.06984 | -24.71722 | 36987 ft | 479 kts | 110° |
| 2026-04-22 08:47 | 57.04668 | -24.60284 | 36987 ft | 479 kts | 110° |
| 2026-04-22 08:48 | 57.02338 | -24.48844 | 36987 ft | 479 kts | 110° |
| 2026-04-22 08:48 | 57.00000 | -24.37429 | 36987 ft | 479 kts | 110° |
| 2026-04-22 08:49 | 56.97665 | -24.26093 | 36987 ft | 479 kts | 111° |
| 2026-04-22 08:49 | 56.95304 | -24.14696 | 36986 ft | 477 kts | 111° |
| 2026-04-22 08:50 | 56.92951 | -24.03401 | 36987 ft | 476 kts | 111° |
| 2026-04-22 08:50 | 56.90601 | -23.92187 | 36987 ft | 476 kts | 111° |
| 2026-04-22 08:51 | 56.88240 | -23.80978 | 36987 ft | 475 kts | 111° |
| 2026-04-22 08:51 | 56.85860 | -23.69743 | 36987 ft | 475 kts | 111° |
| 2026-04-22 08:52 | 56.83475 | -23.58545 | 36987 ft | 475 kts | 111° |
| 2026-04-22 08:52 | 56.81076 | -23.47342 | 36987 ft | 475 kts | 111° |
| 2026-04-22 08:53 | 56.78661 | -23.36128 | 36987 ft | 475 kts | 111° |
| 2026-04-22 08:53 | 56.76239 | -23.24942 | 36987 ft | 475 kts | 111° |
| 2026-04-22 08:54 | 56.73817 | -23.13815 | 36987 ft | 475 kts | 111° |
| 2026-04-22 08:54 | 56.71368 | -23.02622 | 36987 ft | 475 kts | 111° |
| 2026-04-22 08:55 | 56.68918 | -22.91486 | 36987 ft | 475 kts | 111° |
| 2026-04-22 08:55 | 56.66449 | -22.80324 | 36987 ft | 475 kts | 111° |
| 2026-04-22 08:56 | 56.63988 | -22.69259 | 36987 ft | 475 kts | 111° |
| 2026-04-22 08:56 | 56.61514 | -22.58194 | 36987 ft | 475 kts | 111° |
| 2026-04-22 08:57 | 56.59031 | -22.47147 | 36987 ft | 475 kts | 111° |
| 2026-04-22 08:57 | 56.56521 | -22.36039 | 36987 ft | 475 kts | 111° |
| 2026-04-22 08:58 | 56.54023 | -22.25040 | 36987 ft | 475 kts | 112° |
| 2026-04-22 08:58 | 56.51500 | -22.13989 | 36987 ft | 475 kts | 112° |
| 2026-04-22 08:59 | 56.48975 | -22.02989 | 36987 ft | 475 kts | 112° |
| 2026-04-22 08:59 | 56.46442 | -21.92010 | 36987 ft | 475 kts | 112° |
| 2026-04-22 09:00 | 56.43886 | -21.80983 | 36987 ft | 475 kts | 112° |
| 2026-04-22 09:00 | 56.41329 | -21.70014 | 36987 ft | 475 kts | 112° |
| 2026-04-22 09:01 | 56.38775 | -21.59111 | 36987 ft | 475 kts | 112° |
| 2026-04-22 09:01 | 56.36197 | -21.48165 | 36987 ft | 475 kts | 112° |
| 2026-04-22 09:02 | 56.33608 | -21.37227 | 36987 ft | 475 kts | 112° |
| 2026-04-22 09:02 | 56.31005 | -21.26285 | 36987 ft | 475 kts | 113° |
| 2026-04-22 09:03 | 56.28407 | -21.15416 | 36987 ft | 475 kts | 113° |
| 2026-04-22 09:03 | 56.25796 | -21.04553 | 36987 ft | 475 kts | 113° |
| 2026-04-22 09:04 | 56.23174 | -20.93694 | 36987 ft | 475 kts | 113° |
| 2026-04-22 09:04 | 56.20522 | -20.82766 | 36987 ft | 475 kts | 113° |
| 2026-04-22 09:05 | 56.17868 | -20.71886 | 36987 ft | 475 kts | 113° |
| 2026-04-22 09:05 | 56.15221 | -20.61087 | 36987 ft | 475 kts | 113° |
| 2026-04-22 09:06 | 56.12569 | -20.50320 | 36987 ft | 475 kts | 113° |
| 2026-04-22 09:06 | 56.09879 | -20.39455 | 36987 ft | 475 kts | 113° |
| 2026-04-22 09:07 | 56.07206 | -20.28711 | 36987 ft | 475 kts | 114° |
| 2026-04-22 09:07 | 56.04522 | -20.17971 | 36987 ft | 475 kts | 114° |
| 2026-04-22 09:08 | 56.01824 | -20.07233 | 36987 ft | 475 kts | 114° |
| 2026-04-22 09:08 | 55.99761 | -19.96098 | 36981 ft | 476 kts | 99° |
| 2026-04-22 09:09 | 55.99588 | -19.84341 | 36987 ft | 475 kts | 85° |
| 2026-04-22 09:09 | 56.00129 | -19.72582 | 36987 ft | 476 kts | 86° |
| 2026-04-22 09:10 | 56.00519 | -19.60804 | 36987 ft | 475 kts | 86° |
| 2026-04-22 09:10 | 56.00812 | -19.49038 | 36987 ft | 475 kts | 87° |
| 2026-04-22 09:11 | 56.01050 | -19.37211 | 36987 ft | 475 kts | 88° |
| 2026-04-22 09:11 | 56.01251 | -19.25439 | 36987 ft | 475 kts | 89° |
| 2026-04-22 09:12 | 56.01428 | -19.13621 | 36987 ft | 475 kts | 89° |
| 2026-04-22 09:12 | 56.01586 | -19.01913 | 36987 ft | 475 kts | 89° |
| 2026-04-22 09:13 | 56.01730 | -18.90126 | 36987 ft | 475 kts | 89° |
| 2026-04-22 09:13 | 56.01860 | -18.78309 | 36987 ft | 475 kts | 89° |
| 2026-04-22 09:14 | 56.01979 | -18.66463 | 36987 ft | 475 kts | 89° |
| 2026-04-22 09:14 | 56.02084 | -18.54701 | 36987 ft | 475 kts | 89° |
| 2026-04-22 09:15 | 56.02179 | -18.42942 | 36987 ft | 475 kts | 89° |
| 2026-04-22 09:15 | 56.02262 | -18.31123 | 36987 ft | 475 kts | 89° |
| 2026-04-22 09:16 | 56.02334 | -18.19356 | 36987 ft | 475 kts | 89° |
| 2026-04-22 09:16 | 56.02394 | -18.07553 | 36987 ft | 475 kts | 89° |
| 2026-04-22 09:17 | 56.02444 | -17.95804 | 36987 ft | 475 kts | 89° |
| 2026-04-22 09:17 | 56.02482 | -17.84051 | 36987 ft | 475 kts | 89° |
| 2026-04-22 09:18 | 56.02508 | -17.72218 | 36987 ft | 475 kts | 89° |
| 2026-04-22 09:18 | 56.02524 | -17.60490 | 36987 ft | 475 kts | 89° |
| 2026-04-22 09:19 | 56.02529 | -17.48659 | 36987 ft | 475 kts | 89° |
| 2026-04-22 09:19 | 56.02522 | -17.36937 | 36987 ft | 475 kts | 89° |
| 2026-04-22 09:20 | 56.02504 | -17.25121 | 36987 ft | 475 kts | 90° |
| 2026-04-22 09:20 | 56.02474 | -17.13360 | 36987 ft | 475 kts | 90° |
| 2026-04-22 09:21 | 56.02434 | -17.01541 | 36987 ft | 475 kts | 90° |
| 2026-04-22 09:21 | 56.02382 | -16.89798 | 36987 ft | 475 kts | 90° |
| 2026-04-22 09:22 | 56.02319 | -16.77959 | 36987 ft | 475 kts | 90° |
| 2026-04-22 09:22 | 56.02245 | -16.66235 | 36987 ft | 475 kts | 90° |
| 2026-04-22 09:23 | 56.02159 | -16.54384 | 36987 ft | 475 kts | 90° |
| 2026-04-22 09:23 | 56.02063 | -16.42666 | 36987 ft | 475 kts | 90° |
| 2026-04-22 09:24 | 56.01955 | -16.30900 | 36987 ft | 475 kts | 91° |
| 2026-04-22 09:24 | 56.01836 | -16.19147 | 36987 ft | 475 kts | 91° |
| 2026-04-22 09:25 | 56.01705 | -16.07321 | 36987 ft | 475 kts | 91° |
| 2026-04-22 09:25 | 56.01564 | -15.95530 | 36987 ft | 475 kts | 91° |
| 2026-04-22 09:26 | 56.01411 | -15.83782 | 36987 ft | 475 kts | 91° |
| 2026-04-22 09:26 | 56.01246 | -15.71944 | 36987 ft | 475 kts | 91° |
| 2026-04-22 09:27 | 56.01070 | -15.60114 | 36987 ft | 475 kts | 91° |
| 2026-04-22 09:27 | 56.00884 | -15.48358 | 36987 ft | 475 kts | 91° |
| 2026-04-22 09:28 | 56.00687 | -15.36619 | 36987 ft | 475 kts | 91° |
| 2026-04-22 09:28 | 56.00478 | -15.24894 | 36987 ft | 475 kts | 92° |
| 2026-04-22 09:29 | 56.00258 | -15.13072 | 36987 ft | 475 kts | 92° |
| 2026-04-22 09:29 | 56.00028 | -15.01375 | 36987 ft | 475 kts | 92° |
| 2026-04-22 09:30 | 55.99983 | -14.89600 | 36987 ft | 476 kts | 89° |
| 2026-04-22 09:30 | 56.00040 | -14.77763 | 36987 ft | 475 kts | 89° |
| 2026-04-22 09:31 | 56.00075 | -14.65930 | 36987 ft | 475 kts | 89° |
| 2026-04-22 09:31 | 56.00092 | -14.54175 | 36987 ft | 475 kts | 89° |
| 2026-04-22 09:32 | 56.00094 | -14.42404 | 36987 ft | 475 kts | 89° |
| 2026-04-22 09:32 | 56.00083 | -14.30600 | 36987 ft | 475 kts | 90° |
| 2026-04-22 09:33 | 56.00060 | -14.18865 | 36987 ft | 475 kts | 90° |
| 2026-04-22 09:33 | 56.00026 | -14.07114 | 36987 ft | 475 kts | 90° |
| 2026-04-22 09:34 | 55.99149 | -13.95495 | 36988 ft | 476 kts | 105° |
| 2026-04-22 09:34 | 55.97269 | -13.84225 | 36987 ft | 476 kts | 107° |
| 2026-04-22 09:35 | 55.94376 | -13.67376 | 36987 ft | 475 kts | 107° |
| 2026-04-22 09:35 | 55.92417 | -13.56097 | 36987 ft | 475 kts | 107° |
| 2026-04-22 09:36 | 55.90459 | -13.44908 | 36987 ft | 475 kts | 107° |
| 2026-04-22 09:36 | 55.88490 | -13.33730 | 36987 ft | 475 kts | 108° |
| 2026-04-22 09:37 | 55.86507 | -13.22551 | 36987 ft | 475 kts | 108° |
| 2026-04-22 09:37 | 55.84521 | -13.11419 | 36987 ft | 475 kts | 108° |
| 2026-04-22 09:38 | 55.82508 | -13.00210 | 36987 ft | 475 kts | 108° |
| 2026-04-22 09:38 | 55.80494 | -12.89065 | 36987 ft | 475 kts | 108° |
| 2026-04-22 09:39 | 55.78481 | -12.77989 | 36987 ft | 475 kts | 108° |
| 2026-04-22 09:39 | 55.76445 | -12.66853 | 36987 ft | 475 kts | 108° |
| 2026-04-22 09:40 | 55.74392 | -12.55689 | 36987 ft | 475 kts | 108° |
| 2026-04-22 09:40 | 55.72349 | -12.44650 | 36987 ft | 475 kts | 108° |
| 2026-04-22 09:41 | 55.70281 | -12.33542 | 36987 ft | 475 kts | 108° |
| 2026-04-22 09:41 | 55.68205 | -12.22453 | 36987 ft | 475 kts | 108° |
| 2026-04-22 09:42 | 55.66124 | -12.11403 | 36987 ft | 475 kts | 108° |
| 2026-04-22 09:42 | 55.64023 | -12.00315 | 36987 ft | 475 kts | 108° |
| 2026-04-22 09:43 | 55.61918 | -11.89268 | 36987 ft | 475 kts | 108° |
| 2026-04-22 09:43 | 55.59813 | -11.78282 | 36987 ft | 475 kts | 108° |
| 2026-04-22 09:44 | 55.57680 | -11.67220 | 36987 ft | 475 kts | 108° |
| 2026-04-22 09:44 | 55.55549 | -11.56228 | 36987 ft | 475 kts | 108° |
| 2026-04-22 09:45 | 55.53416 | -11.45289 | 36987 ft | 475 kts | 108° |
| 2026-04-22 09:45 | 55.51253 | -11.34256 | 36987 ft | 475 kts | 109° |
| 2026-04-22 09:46 | 55.49081 | -11.23241 | 36987 ft | 475 kts | 109° |
| 2026-04-22 09:46 | 55.46914 | -11.12312 | 36987 ft | 475 kts | 109° |
| 2026-04-22 09:47 | 55.44741 | -11.01417 | 36987 ft | 475 kts | 109° |
| 2026-04-22 09:47 | 55.42546 | -10.90468 | 36987 ft | 475 kts | 109° |
| 2026-04-22 09:48 | 55.40345 | -10.79553 | 36987 ft | 475 kts | 109° |
| 2026-04-22 09:48 | 55.38136 | -10.68659 | 36987 ft | 475 kts | 109° |
| 2026-04-22 09:49 | 55.35903 | -10.57702 | 36987 ft | 475 kts | 109° |
| 2026-04-22 09:49 | 55.33682 | -10.46869 | 36987 ft | 475 kts | 109° |
| 2026-04-22 09:50 | 55.31447 | -10.36027 | 36987 ft | 475 kts | 109° |
| 2026-04-22 09:50 | 55.29188 | -10.25123 | 36987 ft | 475 kts | 110° |
| 2026-04-22 09:51 | 55.26924 | -10.14259 | 36987 ft | 475 kts | 110° |
| 2026-04-22 09:51 | 55.24658 | -10.03442 | 36987 ft | 475 kts | 110° |
| 2026-04-22 09:52 | 55.22389 | -9.92559 | 36987 ft | 475 kts | 110° |
| 2026-04-22 09:52 | 55.20143 | -9.81733 | 36987 ft | 475 kts | 110° |
| 2026-04-22 09:53 | 55.17884 | -9.70903 | 36987 ft | 475 kts | 110° |
| 2026-04-22 09:53 | 55.15606 | -9.60046 | 36987 ft | 475 kts | 110° |
| 2026-04-22 09:54 | 55.13329 | -9.49255 | 36987 ft | 475 kts | 110° |
| 2026-04-22 09:54 | 55.11038 | -9.38454 | 36987 ft | 475 kts | 110° |
| 2026-04-22 09:55 | 55.08746 | -9.27706 | 36987 ft | 475 kts | 110° |
| 2026-04-22 09:55 | 55.06429 | -9.16905 | 36987 ft | 475 kts | 110° |
| 2026-04-22 09:56 | 55.04109 | -9.06142 | 36987 ft | 475 kts | 110° |
| 2026-04-22 09:56 | 55.01787 | -8.95425 | 36987 ft | 475 kts | 110° |
| 2026-04-22 09:57 | 54.99436 | -8.84633 | 36987 ft | 475 kts | 110° |
| 2026-04-22 09:57 | 54.97088 | -8.73910 | 36987 ft | 475 kts | 110° |
| 2026-04-22 09:58 | 54.94732 | -8.63208 | 36987 ft | 475 kts | 110° |
| 2026-04-22 09:58 | 54.92369 | -8.52526 | 36987 ft | 475 kts | 110° |
| 2026-04-22 09:59 | 54.90001 | -8.41877 | 36987 ft | 475 kts | 110° |
| 2026-04-22 09:59 | 54.87620 | -8.31229 | 36986 ft | 475 kts | 111° |
| 2026-04-22 10:00 | 54.85220 | -8.20542 | 36986 ft | 475 kts | 111° |
| 2026-04-22 10:00 | 54.82817 | -8.09899 | 36986 ft | 475 kts | 111° |
| 2026-04-22 10:01 | 54.80405 | -7.99273 | 36986 ft | 475 kts | 111° |
| 2026-04-22 10:01 | 54.77975 | -7.88621 | 36986 ft | 475 kts | 111° |
| 2026-04-22 10:02 | 54.75545 | -7.78021 | 36986 ft | 475 kts | 111° |
| 2026-04-22 10:02 | 54.73106 | -7.67434 | 36986 ft | 475 kts | 111° |
| 2026-04-22 10:03 | 54.70642 | -7.56792 | 36986 ft | 475 kts | 111° |
| 2026-04-22 10:03 | 54.68187 | -7.46241 | 36986 ft | 475 kts | 111° |
| 2026-04-22 10:04 | 54.65723 | -7.35707 | 36986 ft | 475 kts | 111° |
| 2026-04-22 10:04 | 54.63235 | -7.25122 | 36986 ft | 475 kts | 112° |
| 2026-04-22 10:05 | 54.60748 | -7.14588 | 36986 ft | 475 kts | 112° |
| 2026-04-22 10:05 | 54.58256 | -7.04089 | 36986 ft | 475 kts | 112° |
| 2026-04-22 10:06 | 54.55768 | -6.93656 | 36986 ft | 475 kts | 112° |
| 2026-04-22 10:06 | 54.53257 | -6.83176 | 36986 ft | 475 kts | 112° |
| 2026-04-22 10:07 | 54.50724 | -6.72658 | 36987 ft | 475 kts | 112° |
| 2026-04-22 10:07 | 54.48193 | -6.62195 | 36987 ft | 475 kts | 112° |
| 2026-04-22 10:08 | 54.45667 | -6.51805 | 36987 ft | 475 kts | 112° |
| 2026-04-22 10:08 | 54.43101 | -6.41302 | 36987 ft | 475 kts | 112° |
| 2026-04-22 10:09 | 54.40557 | -6.30938 | 36987 ft | 475 kts | 113° |
| 2026-04-22 10:09 | 54.37981 | -6.20492 | 36987 ft | 475 kts | 113° |
| 2026-04-22 10:10 | 54.35412 | -6.10122 | 36987 ft | 475 kts | 113° |
| 2026-04-22 10:10 | 54.32835 | -5.99774 | 36987 ft | 475 kts | 113° |
| 2026-04-22 10:11 | 54.30242 | -5.89405 | 36987 ft | 475 kts | 113° |
| 2026-04-22 10:11 | 54.27636 | -5.79037 | 36987 ft | 475 kts | 113° |
| 2026-04-22 10:12 | 54.25024 | -5.68691 | 36987 ft | 475 kts | 113° |
| 2026-04-22 10:12 | 54.22417 | -5.58411 | 36987 ft | 475 kts | 113° |
| 2026-04-22 10:13 | 54.19791 | -5.48106 | 36987 ft | 475 kts | 113° |
| 2026-04-22 10:13 | 54.17151 | -5.37792 | 36987 ft | 475 kts | 113° |
| 2026-04-22 10:14 | 54.14510 | -5.27527 | 36987 ft | 475 kts | 114° |
| 2026-04-22 10:14 | 54.11866 | -5.17292 | 36987 ft | 475 kts | 114° |
| 2026-04-22 10:15 | 54.09201 | -5.07025 | 36987 ft | 475 kts | 114° |
| 2026-04-22 10:15 | 54.06529 | -4.96774 | 36987 ft | 475 kts | 114° |
| 2026-04-22 10:16 | 54.03854 | -4.86560 | 36987 ft | 475 kts | 114° |
| 2026-04-22 10:16 | 54.01167 | -4.76347 | 36987 ft | 475 kts | 114° |
| 2026-04-22 10:17 | 53.98460 | -4.66105 | 36987 ft | 475 kts | 114° |
| 2026-04-22 10:17 | 53.95761 | -4.55942 | 36987 ft | 475 kts | 114° |
| 2026-04-22 10:18 | 53.93038 | -4.45728 | 36987 ft | 475 kts | 114° |
| 2026-04-22 10:18 | 53.90095 | -4.35809 | 36988 ft | 475 kts | 122° |
| 2026-04-22 10:19 | 53.86405 | -4.26503 | 36987 ft | 475 kts | 124° |
| 2026-04-22 10:19 | 53.82702 | -4.17361 | 36987 ft | 475 kts | 124° |
| 2026-04-22 10:20 | 53.78940 | -4.08158 | 36987 ft | 475 kts | 124° |
| 2026-04-22 10:20 | 53.75172 | -3.99002 | 36987 ft | 475 kts | 125° |
| 2026-04-22 10:21 | 53.71415 | -3.89917 | 36987 ft | 475 kts | 125° |
| 2026-04-22 10:21 | 53.67644 | -3.80838 | 36987 ft | 475 kts | 125° |
| 2026-04-22 10:22 | 53.63855 | -3.71756 | 36987 ft | 475 kts | 125° |
| 2026-04-22 10:22 | 53.60061 | -3.62694 | 36987 ft | 475 kts | 125° |
| 2026-04-22 10:23 | 53.56258 | -3.53646 | 36987 ft | 475 kts | 125° |
| 2026-04-22 10:23 | 53.52457 | -3.44637 | 36987 ft | 475 kts | 125° |
| 2026-04-22 10:24 | 53.48660 | -3.35667 | 36987 ft | 475 kts | 125° |
| 2026-04-22 10:24 | 53.44817 | -3.26623 | 36987 ft | 475 kts | 126° |
| 2026-04-22 10:25 | 53.40997 | -3.17664 | 36987 ft | 475 kts | 126° |
| 2026-04-22 10:25 | 53.37231 | -3.08962 | 36987 ft | 475 kts | 127° |
| 2026-04-22 10:26 | 53.33233 | -2.99996 | 36987 ft | 475 kts | 127° |
| 2026-04-22 10:26 | 53.29273 | -2.91140 | 36987 ft | 475 kts | 127° |
| 2026-04-22 10:27 | 53.25355 | -2.82402 | 36987 ft | 475 kts | 127° |
| 2026-04-22 10:27 | 53.21434 | -2.73682 | 36987 ft | 475 kts | 127° |
| 2026-04-22 10:28 | 53.17491 | -2.64942 | 36987 ft | 475 kts | 127° |
| 2026-04-22 10:28 | 53.13519 | -2.56194 | 36987 ft | 475 kts | 127° |
| 2026-04-22 10:29 | 53.09786 | -2.47187 | 36987 ft | 475 kts | 123° |
| 2026-04-22 10:29 | 53.06094 | -2.38098 | 36987 ft | 475 kts | 123° |
| 2026-04-22 10:30 | 53.01872 | -2.29837 | 36986 ft | 475 kts | 139° |
| 2026-04-22 10:30 | 52.96450 | -2.23548 | 36987 ft | 475 kts | 148° |
| 2026-04-22 10:31 | 52.90896 | -2.17720 | 36987 ft | 475 kts | 148° |
| 2026-04-22 10:31 | 52.85426 | -2.12004 | 36987 ft | 475 kts | 148° |
| 2026-04-22 10:32 | 52.79931 | -2.06279 | 36987 ft | 475 kts | 148° |
| 2026-04-22 10:32 | 52.74453 | -2.00591 | 36991 ft | 475 kts | 148° |
| 2026-04-22 10:33 | 52.70564 | -1.96561 | 36969 ft | 471 kts | 148° |
| 2026-04-22 10:33 | 52.67870 | -1.93777 | 36264 ft | 474 kts | 148° |
| 2026-04-22 10:33 | 52.65096 | -1.90915 | 35205 ft | 482 kts | 148° |
| 2026-04-22 10:34 | 52.62242 | -1.87972 | 33862 ft | 495 kts | 148° |
| 2026-04-22 10:34 | 52.59301 | -1.84946 | 32391 ft | 507 kts | 148° |
| 2026-04-22 10:34 | 52.56312 | -1.81875 | 31453 ft | 506 kts | 148° |
| 2026-04-22 10:34 | 52.53389 | -1.78875 | 31062 ft | 494 kts | 148° |
| 2026-04-22 10:35 | 52.50498 | -1.75916 | 29820 ft | 503 kts | 148° |
| 2026-04-22 10:35 | 52.47556 | -1.72914 | 28885 ft | 503 kts | 148° |
| 2026-04-22 10:35 | 52.44597 | -1.69911 | 28546 ft | 489 kts | 148° |
| 2026-04-22 10:35 | 52.41699 | -1.66988 | 26930 ft | 504 kts | 148° |
| 2026-04-22 10:36 | 52.38761 | -1.64053 | 26125 ft | 499 kts | 148° |
| 2026-04-22 10:36 | 52.35793 | -1.61111 | 24529 ft | 511 kts | 148° |
| 2026-04-22 10:36 | 52.32767 | -1.58104 | 22954 ft | 519 kts | 148° |
| 2026-04-22 10:36 | 52.29795 | -1.55015 | 22277 ft | 505 kts | 147° |
| 2026-04-22 10:37 | 52.26823 | -1.51960 | 21022 ft | 506 kts | 147° |
| 2026-04-22 10:37 | 52.21371 | -1.46230 | 20454 ft | 441 kts | 141° |
| 2026-04-22 10:37 | 52.19087 | -1.43109 | 19872 ft | 420 kts | 139° |
| 2026-04-22 10:38 | 52.16916 | -1.40054 | 19198 ft | 404 kts | 139° |
| 2026-04-22 10:38 | 52.14840 | -1.37140 | 18237 ft | 398 kts | 139° |
| 2026-04-22 10:38 | 52.12743 | -1.34204 | 17158 ft | 394 kts | 139° |
| 2026-04-22 10:38 | 52.10702 | -1.31353 | 16147 ft | 389 kts | 139° |
| 2026-04-22 10:39 | 52.08703 | -1.28568 | 15655 ft | 370 kts | 140° |
| 2026-04-22 10:39 | 52.06804 | -1.25931 | 15254 ft | 353 kts | 140° |
| 2026-04-22 10:39 | 52.04973 | -1.23385 | 14281 ft | 354 kts | 139° |
| 2026-04-22 10:39 | 52.03080 | -1.20757 | 12997 ft | 362 kts | 140° |
| 2026-04-22 10:40 | 52.01184 | -1.18130 | 12124 ft | 366 kts | 140° |
| 2026-04-22 10:40 | 51.99241 | -1.15444 | 11736 ft | 363 kts | 140° |
| 2026-04-22 10:40 | 51.97317 | -1.12786 | 11697 ft | 366 kts | 140° |
| 2026-04-22 10:40 | 51.95399 | -1.10141 | 11693 ft | 362 kts | 140° |
| 2026-04-22 10:41 | 51.93475 | -1.07488 | 11695 ft | 366 kts | 140° |
| 2026-04-22 10:41 | 51.91528 | -1.04806 | 11694 ft | 366 kts | 140° |
| 2026-04-22 10:41 | 51.89612 | -1.02171 | 11694 ft | 366 kts | 140° |
| 2026-04-22 10:41 | 51.87672 | -0.99506 | 11694 ft | 366 kts | 140° |
| 2026-04-22 10:42 | 51.85846 | -0.96654 | 11693 ft | 366 kts | 130° |
| 2026-04-22 10:42 | 51.84431 | -0.93292 | 11686 ft | 354 kts | 118° |
| 2026-04-22 10:42 | 51.83344 | -0.89844 | 11689 ft | 335 kts | 116° |
| 2026-04-22 10:42 | 51.82334 | -0.86549 | 11689 ft | 318 kts | 116° |
| 2026-04-22 10:43 | 51.81382 | -0.83439 | 11688 ft | 302 kts | 116° |
| 2026-04-22 10:43 | 51.80468 | -0.80453 | 11599 ft | 291 kts | 116° |
| 2026-04-22 10:43 | 51.79567 | -0.77519 | 11100 ft | 295 kts | 116° |
| 2026-04-22 10:43 | 51.78637 | -0.74508 | 10402 ft | 305 kts | 116° |
| 2026-04-22 10:44 | 51.77707 | -0.71506 | 10320 ft | 292 kts | 116° |
| 2026-04-22 10:44 | 51.76821 | -0.68608 | 10287 ft | 279 kts | 116° |
| 2026-04-22 10:44 | 51.75988 | -0.65891 | 10253 ft | 266 kts | 116° |
| 2026-04-22 10:44 | 51.75140 | -0.63138 | 9042 ft | 299 kts | 116° |
| 2026-04-22 10:45 | 51.74193 | -0.60077 | 7833 ft | 326 kts | 116° |
| 2026-04-22 10:45 | 51.72930 | -0.57051 | 7382 ft | 320 kts | 131° |
| 2026-04-22 10:45 | 51.71263 | -0.54795 | 6883 ft | 319 kts | 152° |
| 2026-04-22 10:45 | 51.69171 | -0.53874 | 6780 ft | 303 kts | 176° |
| 2026-04-22 10:46 | 51.67117 | -0.53837 | 6793 ft | 288 kts | 180° |
| 2026-04-22 10:46 | 51.65164 | -0.53883 | 6787 ft | 273 kts | 180° |
| 2026-04-22 10:46 | 51.63336 | -0.54185 | 6766 ft | 259 kts | 198° |
| 2026-04-22 10:46 | 51.61856 | -0.55657 | 6703 ft | 246 kts | 228° |
| 2026-04-22 10:47 | 51.61021 | -0.57973 | 6512 ft | 241 kts | 249° |
| 2026-04-22 10:47 | 51.60458 | -0.60485 | 6251 ft | 240 kts | 250° |
| 2026-04-22 10:47 | 51.59907 | -0.63036 | 5990 ft | 239 kts | 250° |
| 2026-04-22 10:47 | 51.59371 | -0.65526 | 5747 ft | 234 kts | 250° |
| 2026-04-22 10:48 | 51.58839 | -0.67992 | 5688 ft | 239 kts | 250° |
| 2026-04-22 10:48 | 51.58300 | -0.70495 | 5681 ft | 238 kts | 251° |
| 2026-04-22 10:48 | 51.57749 | -0.73045 | 5660 ft | 236 kts | 251° |
| 2026-04-22 10:48 | 51.57214 | -0.75523 | 5317 ft | 235 kts | 251° |
| 2026-04-22 10:49 | 51.56681 | -0.77991 | 4871 ft | 236 kts | 251° |
| 2026-04-22 10:49 | 51.56144 | -0.80473 | 4477 ft | 234 kts | 251° |
| 2026-04-22 10:49 | 51.55611 | -0.82937 | 4084 ft | 233 kts | 251° |
| 2026-04-22 10:49 | 51.55078 | -0.85381 | 3692 ft | 231 kts | 248° |
| 2026-04-22 10:50 | 51.54175 | -0.87443 | 3276 ft | 231 kts | 219° |
| 2026-04-22 10:50 | 51.52722 | -0.88428 | 2856 ft | 230 kts | 187° |
| 2026-04-22 10:50 | 51.51145 | -0.88514 | 2692 ft | 227 kts | 181° |
| 2026-04-22 10:50 | 51.49575 | -0.88551 | 2675 ft | 228 kts | 181° |
| 2026-04-22 10:51 | 51.48013 | -0.88587 | 2674 ft | 228 kts | 181° |
| 2026-04-22 10:51 | 51.46433 | -0.88624 | 2672 ft | 228 kts | 180° |
| 2026-04-22 10:51 | 51.44884 | -0.88105 | 2663 ft | 228 kts | 152° |
| 2026-04-22 10:51 | 51.43765 | -0.86379 | 2657 ft | 228 kts | 120° |
| 2026-04-22 10:52 | 51.43365 | -0.84010 | 2636 ft | 213 kts | 88° |
| 2026-04-22 10:52 | 51.43767 | -0.81824 | 2639 ft | 202 kts | 58° |
| 2026-04-22 10:52 | 51.44662 | -0.80124 | 2654 ft | 199 kts | 47° |
| 2026-04-22 10:52 | 51.45610 | -0.78526 | 2657 ft | 198 kts | 46° |
| 2026-04-22 10:53 | 51.46559 | -0.76933 | 2657 ft | 197 kts | 46° |
| 2026-04-22 10:53 | 51.47375 | -0.75215 | 2657 ft | 197 kts | 67° |
| 2026-04-22 10:53 | 51.47618 | -0.73059 | 2647 ft | 193 kts | 86° |
| 2026-04-22 10:53 | 51.47659 | -0.70994 | 2647 ft | 183 kts | 89° |
| 2026-04-22 10:54 | 51.47666 | -0.68968 | 2588 ft | 181 kts | 89° |
| 2026-04-22 10:54 | 51.47671 | -0.66976 | 2352 ft | 174 kts | 89° |
| 2026-04-22 10:54 | 51.47679 | -0.65044 | 2135 ft | 174 kts | 89° |
| 2026-04-22 10:54 | 51.47688 | -0.63158 | 1912 ft | 165 kts | 89° |
| 2026-04-22 10:55 | 51.47696 | -0.61322 | 1695 ft | 164 kts | 89° |
| 2026-04-22 10:55 | 51.47705 | -0.59504 | 1476 ft | 163 kts | 89° |
| 2026-04-22 10:55 | 51.47713 | -0.57688 | 1255 ft | 163 kts | 89° |
| 2026-04-22 10:55 | 51.47720 | -0.55886 | 1033 ft | 162 kts | 89° |
| 2026-04-22 10:56 | 51.47728 | -0.54086 | 812 ft | 161 kts | 89° |
| 2026-04-22 10:56 | 51.47735 | -0.52292 | 591 ft | 161 kts | 89° |
| 2026-04-22 10:56 | 51.47742 | -0.50516 | 374 ft | 160 kts | 89° |
| 2026-04-22 10:56 | 51.47749 | -0.48709 | 155 ft | 160 kts | 89° |
| 2026-04-22 10:57 | 51.47758 | -0.47108 | 92 ft | 90 kts | 92° |
| 2026-04-22 10:57 | 51.47756 | -0.46542 | 92 ft | 40 kts | 88° |
| 2026-04-22 10:57 | 51.47746 | -0.46239 | 89 ft | 19 kts | 105° |
| 2026-04-22 10:57 | 51.47686 | -0.46128 | 88 ft | 4 kts | 143° |
| 2026-04-22 10:58 | 51.47678 | -0.46119 | 88 ft | 0 kts | 143° |
| 2026-04-22 10:58 | 51.47675 | -0.46115 | 87 ft | 1 kts | 143° |
| 2026-04-22 10:58 | 51.47667 | -0.46106 | 87 ft | 2 kts | 143° |
| 2026-04-22 10:58 | 51.47654 | -0.46091 | 87 ft | 2 kts | 143° |
| 2026-04-22 10:59 | 51.47643 | -0.46079 | 88 ft | 1 kts | 153° |
| 2026-04-22 10:59 | 51.47639 | -0.46077 | 88 ft | 0 kts | 163° |
| 2026-04-22 10:59 | 51.47634 | -0.46076 | 88 ft | 1 kts | 173° |
| 2026-04-22 10:59 | 51.47614 | -0.46078 | 88 ft | 4 kts | 200° |
| 2026-04-22 11:00 | 51.47594 | -0.46130 | 88 ft | 8 kts | 256° |
| 2026-04-22 11:00 | 51.47593 | -0.46263 | 87 ft | 14 kts | 269° |
| 2026-04-22 11:00 | 51.47593 | -0.46436 | 89 ft | 16 kts | 269° |
| 2026-04-22 11:00 | 51.47592 | -0.46643 | 89 ft | 19 kts | 269° |
| 2026-04-22 11:01 | 51.47590 | -0.46864 | 89 ft | 20 kts | 268° |
| 2026-04-22 11:01 | 51.47583 | -0.47088 | 89 ft | 18 kts | 269° |
| 2026-04-22 11:01 | 51.47580 | -0.47266 | 91 ft | 14 kts | 268° |
| 2026-04-22 11:01 | 51.47580 | -0.47438 | 91 ft | 16 kts | 269° |
| 2026-04-22 11:02 | 51.47580 | -0.47621 | 90 ft | 14 kts | 270° |
| 2026-04-22 11:02 | 51.47581 | -0.47765 | 89 ft | 10 kts | 270° |
| 2026-04-22 11:02 | 51.47554 | -0.47866 | 88 ft | 12 kts | 199° |
| 2026-04-22 11:02 | 51.47461 | -0.47875 | 86 ft | 12 kts | 178° |
| 2026-04-22 11:03 | 51.47403 | -0.47874 | 85 ft | 9 kts | 178° |
| 2026-04-22 11:03 | 51.47384 | -0.47873 | 85 ft | 0 kts | 178° |
| 2026-04-22 11:03 | 51.47382 | -0.47873 | 85 ft | 1 kts | 180° |
| 2026-04-22 11:03 | 51.47370 | -0.47873 | 84 ft | 0 kts | 180° |
| 2026-04-22 11:06 | 51.47367 | -0.47873 | 84 ft | 1 kts | 180° |
| 2026-04-22 11:06 | 51.47341 | -0.47873 | 84 ft | 5 kts | 180° |
| 2026-04-22 11:07 | 51.47293 | -0.47873 | 84 ft | 5 kts | 179° |
| 2026-04-22 11:07 | 51.47247 | -0.47871 | 84 ft | 6 kts | 178° |
| 2026-04-22 11:07 | 51.47221 | -0.47835 | 84 ft | 5 kts | 103° |
| 2026-04-22 11:07 | 51.47219 | -0.47774 | 85 ft | 5 kts | 89° |
| 2026-04-22 11:08 | 51.47219 | -0.47732 | 86 ft | 0 kts | 90° |